PWSweather.com
Personal Weather Stations
Station Observations
DL5ARK
SonnebergDE

SonnebergDE

Lat: 50.34904861, Lon: 11.18112087

Elevation: 1214

Station Type: Selfmade

http://www.sumbarg.de

High Low Average
Temperature 81.4°F27.4°C 58.4°F14.7°C 68.5°F20.3°C
Dew Point 68.1°F20.1°C 56.1°F13.4°C 61.8°F16.6°C
Winds 18.2 mph 29.3 kmh 0.4 mph 0.6 kmh 6.0 mph SSE9.7 kmh SSE
Wind Gusts 18.3 mph29.5 kmh 0.4 mph0.6 kmh 6.0 mph9.7 kmh
Humidity 73% 51% 64%
Pressure 30.11 in1019.6 mb 30.03 in1016.9 mb -
Precipitation 0.00 in0.0 mm - -
Hour Temp Dew Point Humidity Winds Wind Gusts Pressure Precip Precip Rate Daily Precip Total
12:00 AM 61.5°F16.4°C 59.5°F15.3°C 71% 2.8 mph NE4.5 kmh NE 2.8 mph4.5 kmh 30.11 in1019.6 mb 0.00 in0.0 mm 0.00 in0.0 mm 0.00 in0.0 mm
12:03 AM 61.5°F16.4°C 59.3°F15.2°C 71% 3.6 mph E5.8 kmh E 3.7 mph6.0 kmh 30.11 in1019.6 mb 0.00 in0.0 mm 0.00 in0.0 mm 0.00 in0.0 mm
12:06 AM 61.6°F16.4°C 59.4°F15.2°C 71% 7.2 mph NNW11.6 kmh NNW 7.2 mph11.6 kmh 30.11 in1019.6 mb 0.00 in0.0 mm 0.00 in0.0 mm 0.00 in0.0 mm
12:09 AM 61.5°F16.4°C 59.5°F15.3°C 72% 4.8 mph E7.7 kmh E 4.8 mph7.7 kmh 30.11 in1019.6 mb 0.00 in0.0 mm 0.00 in0.0 mm 0.00 in0.0 mm
12:12 AM 61.3°F16.3°C 59.5°F15.3°C 72% 6.0 mph NE9.7 kmh NE 6.0 mph9.7 kmh 30.11 in1019.6 mb 0.00 in0.0 mm 0.00 in0.0 mm 0.00 in0.0 mm
12:15 AM 61.5°F16.4°C 59.2°F15.1°C 72% 4.8 mph E7.7 kmh E 4.9 mph7.9 kmh 30.10 in1019.3 mb 0.00 in0.0 mm 0.00 in0.0 mm 0.00 in0.0 mm
12:18 AM 61.4°F16.3°C 59.4°F15.2°C 72% 8.1 mph NE13.0 kmh NE 8.1 mph13.0 kmh 30.11 in1019.6 mb 0.00 in0.0 mm 0.00 in0.0 mm 0.00 in0.0 mm
12:21 AM 61.5°F16.4°C 59.3°F15.2°C 72% 6.3 mph NNW10.1 kmh NNW 6.4 mph10.3 kmh 30.10 in1019.3 mb 0.00 in0.0 mm 0.00 in0.0 mm 0.00 in0.0 mm
12:24 AM 61.6°F16.4°C 58.9°F14.9°C 71% 4.2 mph ENE6.8 kmh ENE 4.2 mph6.8 kmh 30.10 in1019.3 mb 0.00 in0.0 mm 0.00 in0.0 mm 0.00 in0.0 mm
12:27 AM 61.4°F16.3°C 59.2°F15.1°C 72% 5.6 mph NNW9.0 kmh NNW 5.6 mph9.0 kmh 30.09 in1019.0 mb 0.00 in0.0 mm 0.00 in0.0 mm 0.00 in0.0 mm
12:30 AM 61.5°F16.4°C 59.2°F15.1°C 72% 3.6 mph NNW5.8 kmh NNW 3.7 mph6.0 kmh 30.10 in1019.3 mb 0.00 in0.0 mm 0.00 in0.0 mm 0.00 in0.0 mm
12:33 AM 61.1°F16.2°C 59.1°F15.1°C 72% 1.6 mph NNW2.6 kmh NNW 1.6 mph2.6 kmh 30.10 in1019.3 mb 0.00 in0.0 mm 0.00 in0.0 mm 0.00 in0.0 mm
12:36 AM 61.1°F16.2°C 59.1°F15.1°C 72% 3.2 mph E5.1 kmh E 3.2 mph5.1 kmh 30.10 in1019.3 mb 0.00 in0.0 mm 0.00 in0.0 mm 0.00 in0.0 mm
12:39 AM 60.9°F16.1°C 59.1°F15.1°C 71% 2.8 mph ENE4.5 kmh ENE 2.9 mph4.7 kmh 30.10 in1019.3 mb 0.00 in0.0 mm 0.00 in0.0 mm 0.00 in0.0 mm
12:42 AM 60.8°F16.0°C 59.1°F15.1°C 72% 2.4 mph NNW3.9 kmh NNW 2.4 mph3.9 kmh 30.10 in1019.3 mb 0.00 in0.0 mm 0.00 in0.0 mm 0.00 in0.0 mm
12:45 AM 60.9°F16.1°C 59.0°F15.0°C 72% 10.7 mph NNW17.2 kmh NNW 10.7 mph17.2 kmh 30.10 in1019.3 mb 0.00 in0.0 mm 0.00 in0.0 mm 0.00 in0.0 mm
12:48 AM 60.7°F15.9°C 59.1°F15.1°C 72% 6.5 mph E10.5 kmh E 6.5 mph10.5 kmh 30.10 in1019.3 mb 0.00 in0.0 mm 0.00 in0.0 mm 0.00 in0.0 mm
12:51 AM 60.7°F15.9°C 59.1°F15.1°C 72% 2.0 mph ENE3.2 kmh ENE 2.0 mph3.2 kmh 30.10 in1019.3 mb 0.00 in0.0 mm 0.00 in0.0 mm 0.00 in0.0 mm
12:54 AM 60.6°F15.9°C 59.0°F15.0°C 72% 2.4 mph NNW3.9 kmh NNW 2.4 mph3.9 kmh 30.10 in1019.3 mb 0.00 in0.0 mm 0.00 in0.0 mm 0.00 in0.0 mm
12:57 AM 60.8°F16.0°C 58.6°F14.8°C 72% 4.1 mph ENE6.6 kmh ENE 4.1 mph6.6 kmh 30.10 in1019.3 mb 0.00 in0.0 mm 0.00 in0.0 mm 0.00 in0.0 mm
01:00 AM 60.8°F16.0°C 58.6°F14.8°C 71% 6.4 mph ENE10.3 kmh ENE 6.4 mph10.3 kmh 30.10 in1019.3 mb 0.00 in0.0 mm 0.00 in0.0 mm 0.00 in0.0 mm
01:03 AM 60.6°F15.9°C 58.9°F14.9°C 72% 2.3 mph ENE3.7 kmh ENE 2.3 mph3.7 kmh 30.10 in1019.3 mb 0.00 in0.0 mm 0.00 in0.0 mm 0.00 in0.0 mm
01:06 AM 60.5°F15.8°C 58.4°F14.7°C 71% 6.0 mph ENE9.7 kmh ENE 6.0 mph9.7 kmh 30.10 in1019.3 mb 0.00 in0.0 mm 0.00 in0.0 mm 0.00 in0.0 mm
01:09 AM 60.5°F15.8°C 58.8°F14.9°C 72% 6.1 mph NNW9.8 kmh NNW 6.1 mph9.8 kmh 30.10 in1019.3 mb 0.00 in0.0 mm 0.00 in0.0 mm 0.00 in0.0 mm
01:12 AM 60.8°F16.0°C 58.5°F14.7°C 73% 8.1 mph E13.0 kmh E 8.1 mph13.0 kmh 30.09 in1019.0 mb 0.00 in0.0 mm 0.00 in0.0 mm 0.00 in0.0 mm
01:15 AM 60.2°F15.7°C 58.4°F14.7°C 72% 3.6 mph E5.8 kmh E 3.6 mph5.8 kmh 30.09 in1019.0 mb 0.00 in0.0 mm 0.00 in0.0 mm 0.00 in0.0 mm
01:18 AM 60.2°F15.7°C 58.5°F14.7°C 73% 2.8 mph E4.5 kmh E 2.8 mph4.5 kmh 30.10 in1019.3 mb 0.00 in0.0 mm 0.00 in0.0 mm 0.00 in0.0 mm
01:21 AM 60.2°F15.7°C 58.3°F14.6°C 72% 4.0 mph NNW6.4 kmh NNW 4.1 mph6.6 kmh 30.09 in1019.0 mb 0.00 in0.0 mm 0.00 in0.0 mm 0.00 in0.0 mm
01:24 AM 60.4°F15.8°C 58.5°F14.7°C 73% 4.0 mph NNW6.4 kmh NNW 4.1 mph6.6 kmh 30.09 in1019.0 mb 0.00 in0.0 mm 0.00 in0.0 mm 0.00 in0.0 mm
01:27 AM 60.0°F15.6°C 58.4°F14.7°C 72% 2.8 mph NNW4.5 kmh NNW 2.8 mph4.5 kmh 30.09 in1019.0 mb 0.00 in0.0 mm 0.00 in0.0 mm 0.00 in0.0 mm
01:30 AM 60.2°F15.7°C 58.4°F14.7°C 73% 2.0 mph NNW3.2 kmh NNW 2.0 mph3.2 kmh 30.10 in1019.3 mb 0.00 in0.0 mm 0.00 in0.0 mm 0.00 in0.0 mm
01:33 AM 60.4°F15.8°C 57.9°F14.4°C 72% 4.4 mph ESE7.1 kmh ESE 4.4 mph7.1 kmh 30.09 in1019.0 mb 0.00 in0.0 mm 0.00 in0.0 mm 0.00 in0.0 mm
01:36 AM 60.0°F15.6°C 58.1°F14.5°C 72% 3.6 mph NE5.8 kmh NE 3.7 mph6.0 kmh 30.09 in1019.0 mb 0.00 in0.0 mm 0.00 in0.0 mm 0.00 in0.0 mm
01:39 AM 60.2°F15.7°C 58.1°F14.5°C 72% 7.7 mph ENE12.4 kmh ENE 7.7 mph12.4 kmh 30.10 in1019.3 mb 0.00 in0.0 mm 0.00 in0.0 mm 0.00 in0.0 mm
01:42 AM 60.1°F15.6°C 58.2°F14.6°C 72% 4.9 mph ENE7.9 kmh ENE 4.9 mph7.9 kmh 30.10 in1019.3 mb 0.00 in0.0 mm 0.00 in0.0 mm 0.00 in0.0 mm
01:45 AM 60.2°F15.7°C 58.0°F14.4°C 72% 10.5 mph ENE16.9 kmh ENE 10.6 mph17.1 kmh 30.10 in1019.3 mb 0.00 in0.0 mm 0.00 in0.0 mm 0.00 in0.0 mm
01:48 AM 60.1°F15.6°C 58.1°F14.5°C 73% 2.4 mph NNW3.9 kmh NNW 2.4 mph3.9 kmh 30.10 in1019.3 mb 0.00 in0.0 mm 0.00 in0.0 mm 0.00 in0.0 mm
01:51 AM 59.8°F15.4°C 57.9°F14.4°C 72% 2.0 mph ENE3.2 kmh ENE 2.0 mph3.2 kmh 30.10 in1019.3 mb 0.00 in0.0 mm 0.00 in0.0 mm 0.00 in0.0 mm
01:54 AM 59.8°F15.4°C 57.9°F14.4°C 72% 4.4 mph NE7.1 kmh NE 4.5 mph7.2 kmh 30.10 in1019.3 mb 0.00 in0.0 mm 0.00 in0.0 mm 0.00 in0.0 mm
01:57 AM 60.2°F15.7°C 57.9°F14.4°C 72% 5.8 mph NNW9.3 kmh NNW 5.8 mph9.3 kmh 30.10 in1019.3 mb 0.00 in0.0 mm 0.00 in0.0 mm 0.00 in0.0 mm
02:00 AM 60.0°F15.6°C 57.8°F14.3°C 72% 8.4 mph ENE13.5 kmh ENE 8.5 mph13.7 kmh 30.10 in1019.3 mb 0.00 in0.0 mm 0.00 in0.0 mm 0.00 in0.0 mm
02:03 AM 59.3°F15.2°C 58.0°F14.4°C 72% 6.7 mph ENE10.8 kmh ENE 6.8 mph10.9 kmh 30.10 in1019.3 mb 0.00 in0.0 mm 0.00 in0.0 mm 0.00 in0.0 mm
02:06 AM 59.8°F15.4°C 58.1°F14.5°C 73% 9.5 mph NE15.3 kmh NE 9.5 mph15.3 kmh 30.10 in1019.3 mb 0.00 in0.0 mm 0.00 in0.0 mm 0.00 in0.0 mm
02:09 AM 59.9°F15.5°C 57.9°F14.4°C 72% 2.4 mph ENE3.9 kmh ENE 2.4 mph3.9 kmh 30.10 in1019.3 mb 0.00 in0.0 mm 0.00 in0.0 mm 0.00 in0.0 mm
02:12 AM 59.7°F15.4°C 58.0°F14.4°C 72% 1.9 mph NE3.1 kmh NE 1.9 mph3.1 kmh 30.10 in1019.3 mb 0.00 in0.0 mm 0.00 in0.0 mm 0.00 in0.0 mm
02:15 AM 59.9°F15.5°C 57.7°F14.3°C 72% 3.6 mph NE5.8 kmh NE 3.7 mph6.0 kmh 30.10 in1019.3 mb 0.00 in0.0 mm 0.00 in0.0 mm 0.00 in0.0 mm
02:18 AM 59.3°F15.2°C 57.9°F14.4°C 73% 2.8 mph NE4.5 kmh NE 2.9 mph4.7 kmh 30.10 in1019.3 mb 0.00 in0.0 mm 0.00 in0.0 mm 0.00 in0.0 mm
02:21 AM 59.9°F15.5°C 57.6°F14.2°C 72% 12.0 mph NE19.3 kmh NE 12.0 mph19.3 kmh 30.10 in1019.3 mb 0.00 in0.0 mm 0.00 in0.0 mm 0.00 in0.0 mm
02:24 AM 59.3°F15.2°C 57.8°F14.3°C 73% 7.3 mph NE11.7 kmh NE 7.3 mph11.7 kmh 30.09 in1019.0 mb 0.00 in0.0 mm 0.00 in0.0 mm 0.00 in0.0 mm
02:27 AM 59.7°F15.4°C 57.7°F14.3°C 72% 3.6 mph NE5.8 kmh NE 3.6 mph5.8 kmh 30.10 in1019.3 mb 0.00 in0.0 mm 0.00 in0.0 mm 0.00 in0.0 mm
02:30 AM 59.7°F15.4°C 57.5°F14.2°C 72% 7.3 mph ENE11.7 kmh ENE 7.3 mph11.7 kmh 30.10 in1019.3 mb 0.00 in0.0 mm 0.00 in0.0 mm 0.00 in0.0 mm
02:33 AM 60.1°F15.6°C 57.4°F14.1°C 72% 6.9 mph SE11.1 kmh SE 6.9 mph11.1 kmh 30.10 in1019.3 mb 0.00 in0.0 mm 0.00 in0.0 mm 0.00 in0.0 mm
02:36 AM 60.1°F15.6°C 57.1°F13.9°C 72% 12.9 mph NNW20.8 kmh NNW 12.9 mph20.8 kmh 30.10 in1019.3 mb 0.00 in0.0 mm 0.00 in0.0 mm 0.00 in0.0 mm
02:39 AM 60.0°F15.6°C 57.2°F14.0°C 72% 6.1 mph NE9.8 kmh NE 6.1 mph9.8 kmh 30.09 in1019.0 mb 0.00 in0.0 mm 0.00 in0.0 mm 0.00 in0.0 mm
02:42 AM 60.1°F15.6°C 57.3°F14.1°C 72% 11.2 mph NE18.0 kmh NE 11.2 mph18.0 kmh 30.09 in1019.0 mb 0.00 in0.0 mm 0.00 in0.0 mm 0.00 in0.0 mm
02:45 AM 59.9°F15.5°C 57.2°F14.0°C 72% 2.4 mph ENE3.9 kmh ENE 2.4 mph3.9 kmh 30.10 in1019.3 mb 0.00 in0.0 mm 0.00 in0.0 mm 0.00 in0.0 mm
02:48 AM 59.7°F15.4°C 57.3°F14.1°C 72% 3.2 mph ENE5.1 kmh ENE 3.3 mph5.3 kmh 30.09 in1019.0 mb 0.00 in0.0 mm 0.00 in0.0 mm 0.00 in0.0 mm
02:51 AM 59.6°F15.3°C 57.3°F14.1°C 72% 6.8 mph ENE10.9 kmh ENE 6.8 mph10.9 kmh 30.10 in1019.3 mb 0.00 in0.0 mm 0.00 in0.0 mm 0.00 in0.0 mm
02:54 AM 59.3°F15.2°C 57.3°F14.1°C 72% 3.2 mph NE5.1 kmh NE 3.2 mph5.1 kmh 30.09 in1019.0 mb 0.00 in0.0 mm 0.00 in0.0 mm 0.00 in0.0 mm
02:57 AM 59.6°F15.3°C 57.3°F14.1°C 72% 7.6 mph ENE12.2 kmh ENE 7.6 mph12.2 kmh 30.09 in1019.0 mb 0.00 in0.0 mm 0.00 in0.0 mm 0.00 in0.0 mm
03:00 AM 59.8°F15.4°C 57.1°F13.9°C 72% 6.4 mph E10.3 kmh E 6.4 mph10.3 kmh 30.09 in1019.0 mb 0.00 in0.0 mm 0.00 in0.0 mm 0.00 in0.0 mm
03:03 AM 59.5°F15.3°C 57.0°F13.9°C 72% 3.6 mph NNW5.8 kmh NNW 3.7 mph6.0 kmh 30.09 in1019.0 mb 0.00 in0.0 mm 0.00 in0.0 mm 0.00 in0.0 mm
03:06 AM 59.6°F15.3°C 57.0°F13.9°C 72% 8.7 mph NE14.0 kmh NE 8.7 mph14.0 kmh 30.09 in1019.0 mb 0.00 in0.0 mm 0.00 in0.0 mm 0.00 in0.0 mm
03:09 AM 59.5°F15.3°C 57.3°F14.1°C 72% 2.3 mph ENE3.7 kmh ENE 2.3 mph3.7 kmh 30.09 in1019.0 mb 0.00 in0.0 mm 0.00 in0.0 mm 0.00 in0.0 mm
03:12 AM 59.3°F15.2°C 56.9°F13.8°C 72% 2.4 mph ENE3.9 kmh ENE 2.4 mph3.9 kmh 30.09 in1019.0 mb 0.00 in0.0 mm 0.00 in0.0 mm 0.00 in0.0 mm
03:15 AM 59.5°F15.3°C 57.1°F13.9°C 72% 4.9 mph SE7.9 kmh SE 4.9 mph7.9 kmh 30.09 in1019.0 mb 0.00 in0.0 mm 0.00 in0.0 mm 0.00 in0.0 mm
03:18 AM 59.5°F15.3°C 56.9°F13.8°C 72% 3.6 mph ENE5.8 kmh ENE 3.6 mph5.8 kmh 30.09 in1019.0 mb 0.00 in0.0 mm 0.00 in0.0 mm 0.00 in0.0 mm
03:21 AM 59.1°F15.1°C 57.3°F14.1°C 72% 2.8 mph E4.5 kmh E 2.9 mph4.7 kmh 30.09 in1019.0 mb 0.00 in0.0 mm 0.00 in0.0 mm 0.00 in0.0 mm
03:24 AM 59.1°F15.1°C 57.0°F13.9°C 72% 3.6 mph E5.8 kmh E 3.7 mph6.0 kmh 30.09 in1019.0 mb 0.00 in0.0 mm 0.00 in0.0 mm 0.00 in0.0 mm
03:27 AM 59.3°F15.2°C 56.9°F13.8°C 73% 8.9 mph NE14.3 kmh NE 9.0 mph14.5 kmh 30.09 in1019.0 mb 0.00 in0.0 mm 0.00 in0.0 mm 0.00 in0.0 mm
03:30 AM 59.2°F15.1°C 56.5°F13.6°C 72% 5.1 mph NE8.2 kmh NE 5.2 mph8.4 kmh 30.09 in1019.0 mb 0.00 in0.0 mm 0.00 in0.0 mm 0.00 in0.0 mm
03:36 AM 58.9°F14.9°C 56.8°F13.8°C 72% 1.9 mph NNW3.1 kmh NNW 2.0 mph3.2 kmh 30.09 in1019.0 mb 0.00 in0.0 mm 0.00 in0.0 mm 0.00 in0.0 mm
03:39 AM 59.5°F15.3°C 56.6°F13.7°C 73% 9.7 mph NE15.6 kmh NE 9.8 mph15.8 kmh 30.09 in1019.0 mb 0.00 in0.0 mm 0.00 in0.0 mm 0.00 in0.0 mm
03:42 AM 59.1°F15.1°C 56.5°F13.6°C 72% 3.2 mph NNW5.1 kmh NNW 3.3 mph5.3 kmh 30.09 in1019.0 mb 0.00 in0.0 mm 0.00 in0.0 mm 0.00 in0.0 mm
03:45 AM 59.0°F15.0°C 56.7°F13.7°C 72% 2.8 mph E4.5 kmh E 2.9 mph4.7 kmh 30.09 in1019.0 mb 0.00 in0.0 mm 0.00 in0.0 mm 0.00 in0.0 mm
03:48 AM 59.2°F15.1°C 56.5°F13.6°C 72% 2.3 mph NNW3.7 kmh NNW 2.5 mph4.0 kmh 30.09 in1019.0 mb 0.00 in0.0 mm 0.00 in0.0 mm 0.00 in0.0 mm
03:51 AM 59.1°F15.1°C 56.8°F13.8°C 72% 2.8 mph NNW4.5 kmh NNW 2.8 mph4.5 kmh 30.09 in1019.0 mb 0.00 in0.0 mm 0.00 in0.0 mm 0.00 in0.0 mm
03:54 AM 59.1°F15.1°C 56.6°F13.7°C 72% 2.4 mph E3.9 kmh E 2.4 mph3.9 kmh 30.09 in1019.0 mb 0.00 in0.0 mm 0.00 in0.0 mm 0.00 in0.0 mm
03:57 AM 58.4°F14.7°C 56.9°F13.8°C 72% 3.2 mph ENE5.1 kmh ENE 3.2 mph5.1 kmh 30.09 in1019.0 mb 0.00 in0.0 mm 0.00 in0.0 mm 0.00 in0.0 mm
04:00 AM 59.0°F15.0°C 56.7°F13.7°C 73% 5.0 mph E8.0 kmh E 5.0 mph8.0 kmh 30.09 in1019.0 mb 0.00 in0.0 mm 0.00 in0.0 mm 0.00 in0.0 mm
04:03 AM 59.2°F15.1°C 56.6°F13.7°C 73% 5.7 mph E9.2 kmh E 5.7 mph9.2 kmh 30.09 in1019.0 mb 0.00 in0.0 mm 0.00 in0.0 mm 0.00 in0.0 mm
04:06 AM 58.9°F14.9°C 56.7°F13.7°C 73% 5.6 mph ESE9.0 kmh ESE 5.6 mph9.0 kmh 30.09 in1019.0 mb 0.00 in0.0 mm 0.00 in0.0 mm 0.00 in0.0 mm
04:09 AM 59.1°F15.1°C 56.4°F13.6°C 73% 3.6 mph ENE5.8 kmh ENE 3.6 mph5.8 kmh 30.09 in1019.0 mb 0.00 in0.0 mm 0.00 in0.0 mm 0.00 in0.0 mm
04:12 AM 59.1°F15.1°C 56.5°F13.6°C 73% 6.9 mph NNW11.1 kmh NNW 6.9 mph11.1 kmh 30.09 in1019.0 mb 0.00 in0.0 mm 0.00 in0.0 mm 0.00 in0.0 mm
04:15 AM 59.2°F15.1°C 56.4°F13.6°C 73% 4.0 mph E6.4 kmh E 4.1 mph6.6 kmh 30.09 in1019.0 mb 0.00 in0.0 mm 0.00 in0.0 mm 0.00 in0.0 mm
04:18 AM 59.1°F15.1°C 56.4°F13.6°C 73% 8.8 mph E14.2 kmh E 8.8 mph14.2 kmh 30.09 in1019.0 mb 0.00 in0.0 mm 0.00 in0.0 mm 0.00 in0.0 mm
04:21 AM 59.0°F15.0°C 56.7°F13.7°C 73% 2.8 mph NE4.5 kmh NE 2.8 mph4.5 kmh 30.09 in1019.0 mb 0.00 in0.0 mm 0.00 in0.0 mm 0.00 in0.0 mm
04:24 AM 58.9°F14.9°C 56.6°F13.7°C 73% 3.6 mph ENE5.8 kmh ENE 3.6 mph5.8 kmh 30.09 in1019.0 mb 0.00 in0.0 mm 0.00 in0.0 mm 0.00 in0.0 mm
04:27 AM 59.2°F15.1°C 56.3°F13.5°C 73% 9.3 mph NE15.0 kmh NE 9.4 mph15.1 kmh 30.09 in1019.0 mb 0.00 in0.0 mm 0.00 in0.0 mm 0.00 in0.0 mm
04:30 AM 58.8°F14.9°C 56.2°F13.4°C 72% 7.6 mph NNW12.2 kmh NNW 7.6 mph12.2 kmh 30.09 in1019.0 mb 0.00 in0.0 mm 0.00 in0.0 mm 0.00 in0.0 mm
04:33 AM 59.2°F15.1°C 56.2°F13.4°C 72% 4.8 mph NE7.7 kmh NE 4.8 mph7.7 kmh 30.09 in1019.0 mb 0.00 in0.0 mm 0.00 in0.0 mm 0.00 in0.0 mm
04:36 AM 59.5°F15.3°C 56.5°F13.6°C 73% 4.4 mph E7.1 kmh E 4.5 mph7.2 kmh 30.09 in1019.0 mb 0.00 in0.0 mm 0.00 in0.0 mm 0.00 in0.0 mm
04:39 AM 59.2°F15.1°C 56.6°F13.7°C 73% 3.6 mph E5.8 kmh E 3.7 mph6.0 kmh 30.09 in1019.0 mb 0.00 in0.0 mm 0.00 in0.0 mm 0.00 in0.0 mm
04:42 AM 59.3°F15.2°C 56.1°F13.4°C 72% 5.2 mph NNW8.4 kmh NNW 5.3 mph8.5 kmh 30.09 in1019.0 mb 0.00 in0.0 mm 0.00 in0.0 mm 0.00 in0.0 mm
04:45 AM 59.3°F15.2°C 56.5°F13.6°C 73% 5.7 mph ENE9.2 kmh ENE 5.7 mph9.2 kmh 30.09 in1019.0 mb 0.00 in0.0 mm 0.00 in0.0 mm 0.00 in0.0 mm
04:48 AM 59.5°F15.3°C 56.6°F13.7°C 73% 6.9 mph ENE11.1 kmh ENE 7.0 mph11.3 kmh 30.09 in1019.0 mb 0.00 in0.0 mm 0.00 in0.0 mm 0.00 in0.0 mm
04:51 AM 59.3°F15.2°C 56.6°F13.7°C 72% 3.6 mph ENE5.8 kmh ENE 3.7 mph6.0 kmh 30.09 in1019.0 mb 0.00 in0.0 mm 0.00 in0.0 mm 0.00 in0.0 mm
04:54 AM 59.2°F15.1°C 56.5°F13.6°C 72% 6.7 mph NNW10.8 kmh NNW 6.8 mph10.9 kmh 30.09 in1019.0 mb 0.00 in0.0 mm 0.00 in0.0 mm 0.00 in0.0 mm
04:57 AM 59.7°F15.4°C 56.7°F13.7°C 72% 5.3 mph NNW8.5 kmh NNW 5.3 mph8.5 kmh 30.09 in1019.0 mb 0.00 in0.0 mm 0.00 in0.0 mm 0.00 in0.0 mm
05:00 AM 59.8°F15.4°C 56.8°F13.8°C 72% 2.3 mph E3.7 kmh E 2.4 mph3.9 kmh 30.09 in1019.0 mb 0.00 in0.0 mm 0.00 in0.0 mm 0.00 in0.0 mm
05:03 AM 59.9°F15.5°C 56.6°F13.7°C 71% 4.2 mph ENE6.8 kmh ENE 4.3 mph6.9 kmh 30.09 in1019.0 mb 0.00 in0.0 mm 0.00 in0.0 mm 0.00 in0.0 mm
05:06 AM 59.7°F15.4°C 56.9°F13.8°C 71% 7.3 mph NE11.7 kmh NE 7.3 mph11.7 kmh 30.09 in1019.0 mb 0.00 in0.0 mm 0.00 in0.0 mm 0.00 in0.0 mm
05:09 AM 59.3°F15.2°C 56.8°F13.8°C 70% 2.3 mph NNW3.7 kmh NNW 2.4 mph3.9 kmh 30.09 in1019.0 mb 0.00 in0.0 mm 0.00 in0.0 mm 0.00 in0.0 mm
05:12 AM 60.0°F15.6°C 56.8°F13.8°C 70% 6.8 mph E10.9 kmh E 6.9 mph11.1 kmh 30.09 in1019.0 mb 0.00 in0.0 mm 0.00 in0.0 mm 0.00 in0.0 mm
05:15 AM 60.1°F15.6°C 56.8°F13.8°C 70% 8.1 mph ENE13.0 kmh ENE 8.2 mph13.2 kmh 30.09 in1019.0 mb 0.00 in0.0 mm 0.00 in0.0 mm 0.00 in0.0 mm
05:18 AM 60.0°F15.6°C 56.9°F13.8°C 70% 1.6 mph E2.6 kmh E 1.6 mph2.6 kmh 30.09 in1019.0 mb 0.00 in0.0 mm 0.00 in0.0 mm 0.00 in0.0 mm
05:21 AM 59.9°F15.5°C 56.8°F13.8°C 69% 7.3 mph E11.7 kmh E 7.3 mph11.7 kmh 30.09 in1019.0 mb 0.00 in0.0 mm 0.00 in0.0 mm 0.00 in0.0 mm
05:24 AM 59.8°F15.4°C 56.7°F13.7°C 70% 4.4 mph NNW7.1 kmh NNW 4.5 mph7.2 kmh 30.09 in1019.0 mb 0.00 in0.0 mm 0.00 in0.0 mm 0.00 in0.0 mm
05:27 AM 60.0°F15.6°C 56.9°F13.8°C 71% 2.4 mph NNW3.9 kmh NNW 2.4 mph3.9 kmh 30.09 in1019.0 mb 0.00 in0.0 mm 0.00 in0.0 mm 0.00 in0.0 mm
05:30 AM 59.9°F15.5°C 56.7°F13.7°C 70% 5.2 mph E8.4 kmh E 5.3 mph8.5 kmh 30.09 in1019.0 mb 0.00 in0.0 mm 0.00 in0.0 mm 0.00 in0.0 mm
05:33 AM 60.4°F15.8°C 56.7°F13.7°C 70% 3.2 mph NNW5.1 kmh NNW 3.2 mph5.1 kmh 30.09 in1019.0 mb 0.00 in0.0 mm 0.00 in0.0 mm 0.00 in0.0 mm
05:36 AM 60.7°F15.9°C 56.5°F13.6°C 69% 10.5 mph NE16.9 kmh NE 10.6 mph17.1 kmh 30.09 in1019.0 mb 0.00 in0.0 mm 0.00 in0.0 mm 0.00 in0.0 mm
05:39 AM 60.8°F16.0°C 56.7°F13.7°C 70% 4.0 mph E6.4 kmh E 4.0 mph6.4 kmh 30.09 in1019.0 mb 0.00 in0.0 mm 0.00 in0.0 mm 0.00 in0.0 mm
05:42 AM 60.8°F16.0°C 56.7°F13.7°C 70% 6.4 mph ENE10.3 kmh ENE 6.4 mph10.3 kmh 30.09 in1019.0 mb 0.00 in0.0 mm 0.00 in0.0 mm 0.00 in0.0 mm
05:45 AM 60.9°F16.1°C 56.6°F13.7°C 70% 2.7 mph NE4.3 kmh NE 2.8 mph4.5 kmh 30.09 in1019.0 mb 0.00 in0.0 mm 0.00 in0.0 mm 0.00 in0.0 mm
05:48 AM 62.0°F16.7°C 57.0°F13.9°C 70% 4.0 mph E6.4 kmh E 4.1 mph6.6 kmh 30.09 in1019.0 mb 0.00 in0.0 mm 0.00 in0.0 mm 0.00 in0.0 mm
05:51 AM 61.9°F16.6°C 57.1°F13.9°C 68% 6.7 mph NNW10.8 kmh NNW 6.8 mph10.9 kmh 30.09 in1019.0 mb 0.00 in0.0 mm 0.00 in0.0 mm 0.00 in0.0 mm
05:54 AM 62.2°F16.8°C 56.9°F13.8°C 67% 8.1 mph E13.0 kmh E 8.1 mph13.0 kmh 30.09 in1019.0 mb 0.00 in0.0 mm 0.00 in0.0 mm 0.00 in0.0 mm
05:57 AM 61.7°F16.5°C 57.2°F14.0°C 67% 3.6 mph E5.8 kmh E 3.6 mph5.8 kmh 30.09 in1019.0 mb 0.00 in0.0 mm 0.00 in0.0 mm 0.00 in0.0 mm
06:00 AM 61.4°F16.3°C 57.3°F14.1°C 67% 2.8 mph NNW4.5 kmh NNW 2.8 mph4.5 kmh 30.09 in1019.0 mb 0.00 in0.0 mm 0.00 in0.0 mm 0.00 in0.0 mm
06:03 AM 60.9°F16.1°C 57.4°F14.1°C 67% 2.8 mph E4.5 kmh E 2.8 mph4.5 kmh 30.09 in1019.0 mb 0.00 in0.0 mm 0.00 in0.0 mm 0.00 in0.0 mm
06:09 AM 61.3°F16.3°C 57.4°F14.1°C 68% 3.6 mph NE5.8 kmh NE 3.6 mph5.8 kmh 30.09 in1019.0 mb 0.00 in0.0 mm 0.00 in0.0 mm 0.00 in0.0 mm
06:12 AM 62.6°F17.0°C 57.8°F14.3°C 69% 2.3 mph NNW3.7 kmh NNW 2.5 mph4.0 kmh 30.09 in1019.0 mb 0.00 in0.0 mm 0.00 in0.0 mm 0.00 in0.0 mm
06:15 AM 63.4°F17.4°C 57.5°F14.2°C 67% 8.4 mph E13.5 kmh E 8.4 mph13.5 kmh 30.09 in1019.0 mb 0.00 in0.0 mm 0.00 in0.0 mm 0.00 in0.0 mm
06:18 AM 64.7°F18.2°C 58.1°F14.5°C 66% 2.7 mph E4.3 kmh E 2.7 mph4.3 kmh 30.09 in1019.0 mb 0.00 in0.0 mm 0.00 in0.0 mm 0.00 in0.0 mm
06:21 AM 64.5°F18.1°C 58.4°F14.7°C 65% 1.5 mph NNW2.4 kmh NNW 1.5 mph2.4 kmh 30.09 in1019.0 mb 0.00 in0.0 mm 0.00 in0.0 mm 0.00 in0.0 mm
06:24 AM 65.2°F18.4°C 58.8°F14.9°C 64% 3.2 mph NE5.1 kmh NE 3.3 mph5.3 kmh 30.09 in1019.0 mb 0.00 in0.0 mm 0.00 in0.0 mm 0.00 in0.0 mm
06:27 AM 64.9°F18.3°C 59.3°F15.2°C 63% 2.0 mph NNE3.2 kmh NNE 2.0 mph3.2 kmh 30.09 in1019.0 mb 0.00 in0.0 mm 0.00 in0.0 mm 0.00 in0.0 mm
06:30 AM 65.9°F18.8°C 59.7°F15.4°C 63% 2.0 mph E3.2 kmh E 2.0 mph3.2 kmh 30.09 in1019.0 mb 0.00 in0.0 mm 0.00 in0.0 mm 0.00 in0.0 mm
06:33 AM 65.3°F18.5°C 58.9°F14.9°C 60% 7.9 mph NE12.7 kmh NE 8.0 mph12.9 kmh 30.09 in1019.0 mb 0.00 in0.0 mm 0.00 in0.0 mm 0.00 in0.0 mm
06:36 AM 68.1°F20.1°C 60.1°F15.6°C 60% 3.6 mph SE5.8 kmh SE 3.7 mph6.0 kmh 30.09 in1019.0 mb 0.00 in0.0 mm 0.00 in0.0 mm 0.00 in0.0 mm
06:39 AM 68.3°F20.2°C 61.0°F16.1°C 62% 2.4 mph E3.9 kmh E 2.4 mph3.9 kmh 30.09 in1019.0 mb 0.00 in0.0 mm 0.00 in0.0 mm 0.00 in0.0 mm
06:42 AM 67.8°F19.9°C 60.2°F15.7°C 59% 6.1 mph ESE9.8 kmh ESE 6.1 mph9.8 kmh 30.09 in1019.0 mb 0.00 in0.0 mm 0.00 in0.0 mm 0.00 in0.0 mm
06:45 AM 67.7°F19.8°C 58.9°F14.9°C 57% 3.6 mph NNW5.8 kmh NNW 3.7 mph6.0 kmh 30.09 in1019.0 mb 0.00 in0.0 mm 0.00 in0.0 mm 0.00 in0.0 mm
06:48 AM 66.7°F19.3°C 60.0°F15.6°C 59% 5.5 mph NE8.9 kmh NE 5.6 mph9.0 kmh 30.09 in1019.0 mb 0.00 in0.0 mm 0.00 in0.0 mm 0.00 in0.0 mm
06:51 AM 67.3°F19.6°C 60.3°F15.7°C 58% 3.4 mph E5.5 kmh E 3.4 mph5.5 kmh 30.09 in1019.0 mb 0.00 in0.0 mm 0.00 in0.0 mm 0.00 in0.0 mm
06:54 AM 67.9°F19.9°C 59.6°F15.3°C 56% 4.0 mph SE6.4 kmh SE 4.0 mph6.4 kmh 30.09 in1019.0 mb 0.00 in0.0 mm 0.00 in0.0 mm 0.00 in0.0 mm
06:57 AM 67.7°F19.8°C 60.2°F15.7°C 56% 3.8 mph SE6.1 kmh SE 4.1 mph6.6 kmh 30.09 in1019.0 mb 0.00 in0.0 mm 0.00 in0.0 mm 0.00 in0.0 mm
07:00 AM 68.0°F20.0°C 59.3°F15.2°C 54% 3.1 mph E5.0 kmh E 3.1 mph5.0 kmh 30.09 in1019.0 mb 0.00 in0.0 mm 0.00 in0.0 mm 0.00 in0.0 mm
07:03 AM 67.9°F19.9°C 60.9°F16.1°C 56% 6.1 mph NNW9.8 kmh NNW 6.1 mph9.8 kmh 30.09 in1019.0 mb 0.00 in0.0 mm 0.00 in0.0 mm 0.00 in0.0 mm
07:06 AM 67.9°F19.9°C 58.5°F14.7°C 53% 10.7 mph E17.2 kmh E 10.8 mph17.4 kmh 30.09 in1019.0 mb 0.00 in0.0 mm 0.00 in0.0 mm 0.00 in0.0 mm
07:09 AM 67.9°F19.9°C 60.0°F15.6°C 58% 2.4 mph ESE3.9 kmh ESE 2.4 mph3.9 kmh 30.09 in1019.0 mb 0.00 in0.0 mm 0.00 in0.0 mm 0.00 in0.0 mm
07:12 AM 67.4°F19.7°C 59.4°F15.2°C 57% 2.0 mph E3.2 kmh E 2.0 mph3.2 kmh 30.09 in1019.0 mb 0.00 in0.0 mm 0.00 in0.0 mm 0.00 in0.0 mm
07:15 AM 68.1°F20.1°C 59.4°F15.2°C 58% 3.2 mph NNW5.1 kmh NNW 3.2 mph5.1 kmh 30.09 in1019.0 mb 0.00 in0.0 mm 0.00 in0.0 mm 0.00 in0.0 mm
07:18 AM 69.5°F20.8°C 59.1°F15.1°C 57% 8.3 mph SE13.4 kmh SE 8.3 mph13.4 kmh 30.09 in1019.0 mb 0.00 in0.0 mm 0.00 in0.0 mm 0.00 in0.0 mm
07:24 AM 68.7°F20.4°C 60.3°F15.7°C 59% 5.3 mph ESE8.5 kmh ESE 5.3 mph8.5 kmh 30.09 in1019.0 mb 0.00 in0.0 mm 0.00 in0.0 mm 0.00 in0.0 mm
07:27 AM 68.1°F20.1°C 59.7°F15.4°C 58% 5.6 mph E9.0 kmh E 5.6 mph9.0 kmh 30.09 in1019.0 mb 0.00 in0.0 mm 0.00 in0.0 mm 0.00 in0.0 mm
07:30 AM 68.6°F20.3°C 59.9°F15.5°C 59% 3.2 mph NNW5.1 kmh NNW 3.3 mph5.3 kmh 30.09 in1019.0 mb 0.00 in0.0 mm 0.00 in0.0 mm 0.00 in0.0 mm
07:33 AM 69.2°F20.7°C 59.0°F15.0°C 58% 14.5 mph NNW23.3 kmh NNW 14.7 mph23.7 kmh 30.09 in1019.0 mb 0.00 in0.0 mm 0.00 in0.0 mm 0.00 in0.0 mm
07:36 AM 69.5°F20.8°C 59.6°F15.3°C 60% 3.2 mph NE5.1 kmh NE 3.3 mph5.3 kmh 30.09 in1019.0 mb 0.00 in0.0 mm 0.00 in0.0 mm 0.00 in0.0 mm
07:39 AM 69.2°F20.7°C 60.2°F15.7°C 60% 13.8 mph ESE22.2 kmh ESE 14.0 mph22.5 kmh 30.09 in1019.0 mb 0.00 in0.0 mm 0.00 in0.0 mm 0.00 in0.0 mm
07:42 AM 68.9°F20.5°C 59.8°F15.4°C 60% 3.2 mph ENE5.1 kmh ENE 3.2 mph5.1 kmh 30.09 in1019.0 mb 0.00 in0.0 mm 0.00 in0.0 mm 0.00 in0.0 mm
07:45 AM 69.7°F20.9°C 60.2°F15.7°C 60% 2.8 mph NNW4.5 kmh NNW 2.9 mph4.7 kmh 30.09 in1019.0 mb 0.00 in0.0 mm 0.00 in0.0 mm 0.00 in0.0 mm
07:48 AM 69.7°F20.9°C 60.3°F15.7°C 60% 5.7 mph ESE9.2 kmh ESE 5.7 mph9.2 kmh 30.09 in1019.0 mb 0.00 in0.0 mm 0.00 in0.0 mm 0.00 in0.0 mm
07:51 AM 69.5°F20.8°C 59.7°F15.4°C 58% 3.2 mph NNW5.1 kmh NNW 3.3 mph5.3 kmh 30.09 in1019.0 mb 0.00 in0.0 mm 0.00 in0.0 mm 0.00 in0.0 mm
07:54 AM 68.8°F20.4°C 59.9°F15.5°C 59% 3.6 mph E5.8 kmh E 3.7 mph6.0 kmh 30.09 in1019.0 mb 0.00 in0.0 mm 0.00 in0.0 mm 0.00 in0.0 mm
07:57 AM 69.1°F20.6°C 60.0°F15.6°C 60% 9.9 mph NNW15.9 kmh NNW 9.9 mph15.9 kmh 30.09 in1019.0 mb 0.00 in0.0 mm 0.00 in0.0 mm 0.00 in0.0 mm
08:00 AM 69.4°F20.8°C 60.8°F16.0°C 61% 7.1 mph SE11.4 kmh SE 7.1 mph11.4 kmh 30.09 in1019.0 mb 0.00 in0.0 mm 0.00 in0.0 mm 0.00 in0.0 mm
08:03 AM 69.5°F20.8°C 60.6°F15.9°C 61% 9.6 mph SE15.4 kmh SE 9.6 mph15.4 kmh 30.09 in1019.0 mb 0.00 in0.0 mm 0.00 in0.0 mm 0.00 in0.0 mm
08:06 AM 69.5°F20.8°C 60.9°F16.1°C 61% 2.8 mph ESE4.5 kmh ESE 2.9 mph4.7 kmh 30.09 in1019.0 mb 0.00 in0.0 mm 0.00 in0.0 mm 0.00 in0.0 mm
08:09 AM 69.2°F20.7°C 60.6°F15.9°C 61% 2.4 mph ENE3.9 kmh ENE 2.4 mph3.9 kmh 30.09 in1019.0 mb 0.00 in0.0 mm 0.00 in0.0 mm 0.00 in0.0 mm
08:12 AM 69.4°F20.8°C 60.6°F15.9°C 61% 2.4 mph E3.9 kmh E 2.4 mph3.9 kmh 30.09 in1019.0 mb 0.00 in0.0 mm 0.00 in0.0 mm 0.00 in0.0 mm
08:15 AM 69.4°F20.8°C 61.1°F16.2°C 62% 6.0 mph NNW9.7 kmh NNW 6.0 mph9.7 kmh 30.09 in1019.0 mb 0.00 in0.0 mm 0.00 in0.0 mm 0.00 in0.0 mm
08:18 AM 69.1°F20.6°C 59.9°F15.5°C 61% 8.3 mph ESE13.4 kmh ESE 8.4 mph13.5 kmh 30.09 in1019.0 mb 0.00 in0.0 mm 0.00 in0.0 mm 0.00 in0.0 mm
08:21 AM 69.1°F20.6°C 60.8°F16.0°C 62% 2.4 mph ENE3.9 kmh ENE 2.4 mph3.9 kmh 30.09 in1019.0 mb 0.00 in0.0 mm 0.00 in0.0 mm 0.00 in0.0 mm
08:24 AM 69.4°F20.8°C 61.1°F16.2°C 63% 9.2 mph NNW14.8 kmh NNW 9.2 mph14.8 kmh 30.09 in1019.0 mb 0.00 in0.0 mm 0.00 in0.0 mm 0.00 in0.0 mm
08:30 AM 69.1°F20.6°C 60.9°F16.1°C 62% 6.8 mph SE10.9 kmh SE 6.8 mph10.9 kmh 30.09 in1019.0 mb 0.00 in0.0 mm 0.00 in0.0 mm 0.00 in0.0 mm
08:33 AM 69.1°F20.6°C 60.2°F15.7°C 61% 16.6 mph NNW26.7 kmh NNW 16.6 mph26.7 kmh 30.09 in1019.0 mb 0.00 in0.0 mm 0.00 in0.0 mm 0.00 in0.0 mm
08:36 AM 69.1°F20.6°C 60.3°F15.7°C 62% 4.9 mph ESE7.9 kmh ESE 4.9 mph7.9 kmh 30.09 in1019.0 mb 0.00 in0.0 mm 0.00 in0.0 mm 0.00 in0.0 mm
08:39 AM 69.2°F20.7°C 61.0°F16.1°C 64% 10.5 mph NNW16.9 kmh NNW 10.5 mph16.9 kmh 30.09 in1019.0 mb 0.00 in0.0 mm 0.00 in0.0 mm 0.00 in0.0 mm
08:42 AM 69.5°F20.8°C 61.5°F16.4°C 65% 9.1 mph NNW14.6 kmh NNW 9.2 mph14.8 kmh 30.09 in1019.0 mb 0.00 in0.0 mm 0.00 in0.0 mm 0.00 in0.0 mm
08:45 AM 69.8°F21.0°C 62.0°F16.7°C 65% 6.9 mph ESE11.1 kmh ESE 6.9 mph11.1 kmh 30.08 in1018.6 mb 0.00 in0.0 mm 0.00 in0.0 mm 0.00 in0.0 mm
08:48 AM 69.2°F20.7°C 61.2°F16.2°C 64% 7.2 mph SE11.6 kmh SE 7.2 mph11.6 kmh 30.09 in1019.0 mb 0.00 in0.0 mm 0.00 in0.0 mm 0.00 in0.0 mm
08:51 AM 70.1°F21.2°C 61.9°F16.6°C 65% 4.8 mph ESE7.7 kmh ESE 4.9 mph7.9 kmh 30.08 in1018.6 mb 0.00 in0.0 mm 0.00 in0.0 mm 0.00 in0.0 mm
08:54 AM 70.3°F21.3°C 62.9°F17.2°C 66% 2.8 mph E4.5 kmh E 2.8 mph4.5 kmh 30.09 in1019.0 mb 0.00 in0.0 mm 0.00 in0.0 mm 0.00 in0.0 mm
08:57 AM 69.8°F21.0°C 62.1°F16.7°C 64% 2.0 mph E3.2 kmh E 2.0 mph3.2 kmh 30.08 in1018.6 mb 0.00 in0.0 mm 0.00 in0.0 mm 0.00 in0.0 mm
09:00 AM 70.0°F21.1°C 61.8°F16.6°C 63% 5.4 mph NNW8.7 kmh NNW 5.4 mph8.7 kmh 30.08 in1018.6 mb 0.00 in0.0 mm 0.00 in0.0 mm 0.00 in0.0 mm
09:03 AM 70.3°F21.3°C 62.3°F16.8°C 64% 2.8 mph ENE4.5 kmh ENE 2.9 mph4.7 kmh 30.08 in1018.6 mb 0.00 in0.0 mm 0.00 in0.0 mm 0.00 in0.0 mm
09:06 AM 70.8°F21.6°C 63.1°F17.3°C 66% 8.9 mph NNW14.3 kmh NNW 8.9 mph14.3 kmh 30.08 in1018.6 mb 0.00 in0.0 mm 0.00 in0.0 mm 0.00 in0.0 mm
09:09 AM 70.5°F21.4°C 62.3°F16.8°C 64% 1.6 mph E2.6 kmh E 1.6 mph2.6 kmh 30.08 in1018.6 mb 0.00 in0.0 mm 0.00 in0.0 mm 0.00 in0.0 mm
09:12 AM 70.5°F21.4°C 62.0°F16.7°C 63% 6.9 mph SE11.1 kmh SE 6.9 mph11.1 kmh 30.08 in1018.6 mb 0.00 in0.0 mm 0.00 in0.0 mm 0.00 in0.0 mm
09:15 AM 70.4°F21.3°C 61.5°F16.4°C 62% 6.5 mph ESE10.5 kmh ESE 6.5 mph10.5 kmh 30.08 in1018.6 mb 0.00 in0.0 mm 0.00 in0.0 mm 0.00 in0.0 mm
09:18 AM 70.6°F21.4°C 61.2°F16.2°C 62% 7.3 mph NNW11.7 kmh NNW 7.3 mph11.7 kmh 30.08 in1018.6 mb 0.00 in0.0 mm 0.00 in0.0 mm 0.00 in0.0 mm
09:21 AM 70.8°F21.6°C 62.5°F16.9°C 65% 8.9 mph SE14.3 kmh SE 9.0 mph14.5 kmh 30.07 in1018.3 mb 0.00 in0.0 mm 0.00 in0.0 mm 0.00 in0.0 mm
09:24 AM 70.9°F21.6°C 61.9°F16.6°C 63% 4.0 mph E6.4 kmh E 4.1 mph6.6 kmh 30.08 in1018.6 mb 0.00 in0.0 mm 0.00 in0.0 mm 0.00 in0.0 mm
09:27 AM 70.9°F21.6°C 61.8°F16.6°C 63% 7.7 mph SE12.4 kmh SE 7.7 mph12.4 kmh 30.08 in1018.6 mb 0.00 in0.0 mm 0.00 in0.0 mm 0.00 in0.0 mm
09:30 AM 71.3°F21.8°C 61.9°F16.6°C 63% 8.7 mph NNW14.0 kmh NNW 8.8 mph14.2 kmh 30.07 in1018.3 mb 0.00 in0.0 mm 0.00 in0.0 mm 0.00 in0.0 mm
09:33 AM 71.6°F22.0°C 63.1°F17.3°C 66% 4.0 mph ESE6.4 kmh ESE 4.1 mph6.6 kmh 30.08 in1018.6 mb 0.00 in0.0 mm 0.00 in0.0 mm 0.00 in0.0 mm
09:36 AM 71.7°F22.1°C 62.8°F17.1°C 64% 6.3 mph SE10.1 kmh SE 6.4 mph10.3 kmh 30.07 in1018.3 mb 0.00 in0.0 mm 0.00 in0.0 mm 0.00 in0.0 mm
09:39 AM 72.3°F22.4°C 63.5°F17.5°C 65% 8.1 mph SE13.0 kmh SE 8.2 mph13.2 kmh 30.08 in1018.6 mb 0.00 in0.0 mm 0.00 in0.0 mm 0.00 in0.0 mm
09:42 AM 72.3°F22.4°C 63.1°F17.3°C 64% 4.9 mph SE7.9 kmh SE 4.9 mph7.9 kmh 30.08 in1018.6 mb 0.00 in0.0 mm 0.00 in0.0 mm 0.00 in0.0 mm
09:45 AM 72.2°F22.3°C 61.8°F16.6°C 61% 9.2 mph SE14.8 kmh SE 9.2 mph14.8 kmh 30.08 in1018.6 mb 0.00 in0.0 mm 0.00 in0.0 mm 0.00 in0.0 mm
09:48 AM 73.0°F22.8°C 62.6°F17.0°C 62% 3.5 mph SE5.6 kmh SE 3.5 mph5.6 kmh 30.08 in1018.6 mb 0.00 in0.0 mm 0.00 in0.0 mm 0.00 in0.0 mm
09:51 AM 73.3°F22.9°C 63.3°F17.4°C 63% 9.1 mph ESE14.6 kmh ESE 9.1 mph14.6 kmh 30.08 in1018.6 mb 0.00 in0.0 mm 0.00 in0.0 mm 0.00 in0.0 mm
09:54 AM 73.3°F22.9°C 62.0°F16.7°C 60% 6.5 mph SE10.5 kmh SE 6.5 mph10.5 kmh 30.08 in1018.6 mb 0.00 in0.0 mm 0.00 in0.0 mm 0.00 in0.0 mm
09:57 AM 73.0°F22.8°C 63.4°F17.4°C 63% 7.7 mph ESE12.4 kmh ESE 7.7 mph12.4 kmh 30.08 in1018.6 mb 0.00 in0.0 mm 0.00 in0.0 mm 0.00 in0.0 mm
10:00 AM 73.4°F23.0°C 63.1°F17.3°C 61% 3.2 mph SE5.1 kmh SE 3.2 mph5.1 kmh 30.08 in1018.6 mb 0.00 in0.0 mm 0.00 in0.0 mm 0.00 in0.0 mm
10:03 AM 73.4°F23.0°C 64.0°F17.8°C 62% 7.7 mph NNW12.4 kmh NNW 7.7 mph12.4 kmh 30.08 in1018.6 mb 0.00 in0.0 mm 0.00 in0.0 mm 0.00 in0.0 mm
10:06 AM 73.6°F23.1°C 63.3°F17.4°C 61% 10.3 mph SE16.6 kmh SE 10.6 mph17.1 kmh 30.08 in1018.6 mb 0.00 in0.0 mm 0.00 in0.0 mm 0.00 in0.0 mm
10:09 AM 74.0°F23.3°C 64.1°F17.8°C 62% 5.9 mph NNW9.5 kmh NNW 5.9 mph9.5 kmh 30.08 in1018.6 mb 0.00 in0.0 mm 0.00 in0.0 mm 0.00 in0.0 mm
10:12 AM 74.2°F23.4°C 64.3°F17.9°C 61% 5.7 mph NNW9.2 kmh NNW 5.7 mph9.2 kmh 30.08 in1018.6 mb 0.00 in0.0 mm 0.00 in0.0 mm 0.00 in0.0 mm
10:15 AM 73.3°F22.9°C 63.1°F17.3°C 60% 16.7 mph ESE26.9 kmh ESE 16.7 mph26.9 kmh 30.08 in1018.6 mb 0.00 in0.0 mm 0.00 in0.0 mm 0.00 in0.0 mm
10:18 AM 74.2°F23.4°C 64.9°F18.3°C 63% 6.9 mph NNW11.1 kmh NNW 6.9 mph11.1 kmh 30.09 in1019.0 mb 0.00 in0.0 mm 0.00 in0.0 mm 0.00 in0.0 mm
10:21 AM 74.3°F23.5°C 64.2°F17.9°C 60% 4.4 mph SE7.1 kmh SE 4.4 mph7.1 kmh 30.08 in1018.6 mb 0.00 in0.0 mm 0.00 in0.0 mm 0.00 in0.0 mm
10:24 AM 74.2°F23.4°C 64.6°F18.1°C 61% 10.1 mph ESE16.3 kmh ESE 10.2 mph16.4 kmh 30.08 in1018.6 mb 0.00 in0.0 mm 0.00 in0.0 mm 0.00 in0.0 mm
10:27 AM 75.0°F23.9°C 65.5°F18.6°C 61% 6.4 mph SE10.3 kmh SE 6.4 mph10.3 kmh 30.08 in1018.6 mb 0.00 in0.0 mm 0.00 in0.0 mm 0.00 in0.0 mm
10:30 AM 75.2°F24.0°C 64.4°F18.0°C 59% 7.6 mph NNW12.2 kmh NNW 7.6 mph12.2 kmh 30.08 in1018.6 mb 0.00 in0.0 mm 0.00 in0.0 mm 0.00 in0.0 mm
10:33 AM 75.4°F24.1°C 64.7°F18.2°C 59% 9.9 mph NNW15.9 kmh NNW 9.9 mph15.9 kmh 30.08 in1018.6 mb 0.00 in0.0 mm 0.00 in0.0 mm 0.00 in0.0 mm
10:36 AM 75.9°F24.4°C 64.6°F18.1°C 58% 6.3 mph E10.1 kmh E 6.4 mph10.3 kmh 30.09 in1019.0 mb 0.00 in0.0 mm 0.00 in0.0 mm 0.00 in0.0 mm
10:39 AM 75.9°F24.4°C 65.1°F18.4°C 58% 6.9 mph SE11.1 kmh SE 6.9 mph11.1 kmh 30.08 in1018.6 mb 0.00 in0.0 mm 0.00 in0.0 mm 0.00 in0.0 mm
10:42 AM 76.8°F24.9°C 66.0°F18.9°C 59% 4.9 mph SE7.9 kmh SE 4.9 mph7.9 kmh 30.08 in1018.6 mb 0.00 in0.0 mm 0.00 in0.0 mm 0.00 in0.0 mm
10:45 AM 76.3°F24.6°C 64.0°F17.8°C 55% 5.6 mph NNW9.0 kmh NNW 5.6 mph9.0 kmh 30.08 in1018.6 mb 0.00 in0.0 mm 0.00 in0.0 mm 0.00 in0.0 mm
10:48 AM 76.3°F24.6°C 63.8°F17.7°C 55% 5.7 mph SSE9.2 kmh SSE 5.7 mph9.2 kmh 30.08 in1018.6 mb 0.00 in0.0 mm 0.00 in0.0 mm 0.00 in0.0 mm
10:51 AM 76.2°F24.6°C 65.5°F18.6°C 57% 10.7 mph SE17.2 kmh SE 10.8 mph17.4 kmh 30.08 in1018.6 mb 0.00 in0.0 mm 0.00 in0.0 mm 0.00 in0.0 mm
10:54 AM 76.9°F24.9°C 65.0°F18.3°C 57% 8.7 mph SE14.0 kmh SE 8.8 mph14.2 kmh 30.08 in1018.6 mb 0.00 in0.0 mm 0.00 in0.0 mm 0.00 in0.0 mm
10:57 AM 77.2°F25.1°C 65.7°F18.7°C 56% 7.9 mph NNW12.7 kmh NNW 8.0 mph12.9 kmh 30.08 in1018.6 mb 0.00 in0.0 mm 0.00 in0.0 mm 0.00 in0.0 mm
11:00 AM 77.8°F25.4°C 66.3°F19.1°C 56% 6.3 mph NNW10.1 kmh NNW 6.3 mph10.1 kmh 30.08 in1018.6 mb 0.00 in0.0 mm 0.00 in0.0 mm 0.00 in0.0 mm
11:03 AM 77.0°F25.0°C 66.9°F19.4°C 58% 4.2 mph E6.8 kmh E 4.3 mph6.9 kmh 30.08 in1018.6 mb 0.00 in0.0 mm 0.00 in0.0 mm 0.00 in0.0 mm
11:06 AM 76.7°F24.8°C 66.5°F19.2°C 56% 6.0 mph ESE9.7 kmh ESE 6.1 mph9.8 kmh 30.08 in1018.6 mb 0.00 in0.0 mm 0.00 in0.0 mm 0.00 in0.0 mm
11:09 AM 76.3°F24.6°C 66.7°F19.3°C 57% 3.6 mph E5.8 kmh E 3.6 mph5.8 kmh 30.08 in1018.6 mb 0.00 in0.0 mm 0.00 in0.0 mm 0.00 in0.0 mm
11:12 AM 76.9°F24.9°C 66.5°F19.2°C 57% 5.2 mph NNW8.4 kmh NNW 5.2 mph8.4 kmh 30.08 in1018.6 mb 0.00 in0.0 mm 0.00 in0.0 mm 0.00 in0.0 mm
11:15 AM 76.4°F24.7°C 66.7°F19.3°C 55% 4.8 mph ESE7.7 kmh ESE 4.9 mph7.9 kmh 30.08 in1018.6 mb 0.00 in0.0 mm 0.00 in0.0 mm 0.00 in0.0 mm
11:18 AM 76.9°F24.9°C 65.4°F18.6°C 55% 6.0 mph SE9.7 kmh SE 6.0 mph9.7 kmh 30.08 in1018.6 mb 0.00 in0.0 mm 0.00 in0.0 mm 0.00 in0.0 mm
11:21 AM 76.1°F24.5°C 64.3°F17.9°C 54% 8.2 mph E13.2 kmh E 8.2 mph13.2 kmh 30.08 in1018.6 mb 0.00 in0.0 mm 0.00 in0.0 mm 0.00 in0.0 mm
11:24 AM 76.4°F24.7°C 66.5°F19.2°C 57% 7.5 mph ESE12.1 kmh ESE 7.7 mph12.4 kmh 30.08 in1018.6 mb 0.00 in0.0 mm 0.00 in0.0 mm 0.00 in0.0 mm
11:27 AM 76.6°F24.8°C 65.0°F18.3°C 54% 12.7 mph ESE20.4 kmh ESE 12.8 mph20.6 kmh 30.08 in1018.6 mb 0.00 in0.0 mm 0.00 in0.0 mm 0.00 in0.0 mm
11:30 AM 76.6°F24.8°C 65.9°F18.8°C 56% 2.8 mph E4.5 kmh E 2.9 mph4.7 kmh 30.08 in1018.6 mb 0.00 in0.0 mm 0.00 in0.0 mm 0.00 in0.0 mm
11:33 AM 76.8°F24.9°C 66.7°F19.3°C 56% 9.9 mph ESE15.9 kmh ESE 10.0 mph16.1 kmh 30.08 in1018.6 mb 0.00 in0.0 mm 0.00 in0.0 mm 0.00 in0.0 mm
11:36 AM 76.7°F24.8°C 64.8°F18.2°C 54% 17.0 mph ESE27.4 kmh ESE 17.1 mph27.5 kmh 30.08 in1018.6 mb 0.00 in0.0 mm 0.00 in0.0 mm 0.00 in0.0 mm
11:39 AM 76.8°F24.9°C 67.2°F19.6°C 57% 4.0 mph NNW6.4 kmh NNW 4.0 mph6.4 kmh 30.08 in1018.6 mb 0.00 in0.0 mm 0.00 in0.0 mm 0.00 in0.0 mm
11:42 AM 77.1°F25.1°C 66.5°F19.2°C 56% 10.2 mph ESE16.4 kmh ESE 10.3 mph16.6 kmh 30.07 in1018.3 mb 0.00 in0.0 mm 0.00 in0.0 mm 0.00 in0.0 mm
11:45 AM 77.1°F25.1°C 66.1°F18.9°C 55% 6.6 mph SE10.6 kmh SE 6.7 mph10.8 kmh 30.07 in1018.3 mb 0.00 in0.0 mm 0.00 in0.0 mm 0.00 in0.0 mm
11:48 AM 77.8°F25.4°C 67.4°F19.7°C 56% 6.9 mph SE11.1 kmh SE 6.9 mph11.1 kmh 30.07 in1018.3 mb 0.00 in0.0 mm 0.00 in0.0 mm 0.00 in0.0 mm
11:51 AM 77.2°F25.1°C 66.6°F19.2°C 54% 13.6 mph ESE21.9 kmh ESE 13.6 mph21.9 kmh 30.07 in1018.3 mb 0.00 in0.0 mm 0.00 in0.0 mm 0.00 in0.0 mm
11:54 AM 77.1°F25.1°C 66.9°F19.4°C 55% 8.5 mph ESE13.7 kmh ESE 8.5 mph13.7 kmh 30.07 in1018.3 mb 0.00 in0.0 mm 0.00 in0.0 mm 0.00 in0.0 mm
11:57 AM 76.6°F24.8°C 66.1°F18.9°C 55% 6.9 mph SE11.1 kmh SE 6.9 mph11.1 kmh 30.07 in1018.3 mb 0.00 in0.0 mm 0.00 in0.0 mm 0.00 in0.0 mm
12:00 PM 76.8°F24.9°C 67.3°F19.6°C 57% 9.3 mph SE15.0 kmh SE 9.4 mph15.1 kmh 30.07 in1018.3 mb 0.00 in0.0 mm 0.00 in0.0 mm 0.00 in0.0 mm
12:03 PM 77.0°F25.0°C 67.0°F19.4°C 57% 6.7 mph SE10.8 kmh SE 6.8 mph10.9 kmh 30.07 in1018.3 mb 0.00 in0.0 mm 0.00 in0.0 mm 0.00 in0.0 mm
12:06 PM 75.2°F24.0°C 67.5°F19.7°C 57% 5.3 mph SE8.5 kmh SE 5.3 mph8.5 kmh 30.06 in1017.9 mb 0.00 in0.0 mm 0.00 in0.0 mm 0.00 in0.0 mm
12:09 PM 75.2°F24.0°C 65.6°F18.7°C 55% 7.3 mph SE11.7 kmh SE 7.4 mph11.9 kmh 30.06 in1017.9 mb 0.00 in0.0 mm 0.00 in0.0 mm 0.00 in0.0 mm
12:12 PM 77.1°F25.1°C 65.6°F18.7°C 56% 7.3 mph NNW11.7 kmh NNW 7.4 mph11.9 kmh 30.06 in1017.9 mb 0.00 in0.0 mm 0.00 in0.0 mm 0.00 in0.0 mm
12:15 PM 77.6°F25.3°C 66.4°F19.1°C 57% 9.3 mph ESE15.0 kmh ESE 9.4 mph15.1 kmh 30.06 in1017.9 mb 0.00 in0.0 mm 0.00 in0.0 mm 0.00 in0.0 mm
12:18 PM 77.8°F25.4°C 66.5°F19.2°C 55% 6.5 mph NNW10.5 kmh NNW 6.5 mph10.5 kmh 30.06 in1017.9 mb 0.00 in0.0 mm 0.00 in0.0 mm 0.00 in0.0 mm
12:21 PM 76.4°F24.7°C 66.3°F19.1°C 55% 8.9 mph SE14.3 kmh SE 9.0 mph14.5 kmh 30.06 in1017.9 mb 0.00 in0.0 mm 0.00 in0.0 mm 0.00 in0.0 mm
12:24 PM 78.2°F25.7°C 65.7°F18.7°C 54% 9.3 mph ESE15.0 kmh ESE 9.3 mph15.0 kmh 30.06 in1017.9 mb 0.00 in0.0 mm 0.00 in0.0 mm 0.00 in0.0 mm
12:27 PM 77.0°F25.0°C 66.9°F19.4°C 56% 4.7 mph NNW7.6 kmh NNW 4.7 mph7.6 kmh 30.06 in1017.9 mb 0.00 in0.0 mm 0.00 in0.0 mm 0.00 in0.0 mm
12:30 PM 77.2°F25.1°C 66.0°F18.9°C 56% 12.2 mph ESE19.6 kmh ESE 12.3 mph19.8 kmh 30.06 in1017.9 mb 0.00 in0.0 mm 0.00 in0.0 mm 0.00 in0.0 mm
12:33 PM 77.5°F25.3°C 66.6°F19.2°C 55% 8.1 mph NNW13.0 kmh NNW 8.1 mph13.0 kmh 30.06 in1017.9 mb 0.00 in0.0 mm 0.00 in0.0 mm 0.00 in0.0 mm
12:36 PM 76.6°F24.8°C 65.0°F18.3°C 55% 8.4 mph ESE13.5 kmh ESE 8.4 mph13.5 kmh 30.05 in1017.6 mb 0.00 in0.0 mm 0.00 in0.0 mm 0.00 in0.0 mm
12:39 PM 75.8°F24.3°C 65.8°F18.8°C 55% 11.1 mph ESE17.9 kmh ESE 11.1 mph17.9 kmh 30.05 in1017.6 mb 0.00 in0.0 mm 0.00 in0.0 mm 0.00 in0.0 mm
12:42 PM 76.0°F24.4°C 64.8°F18.2°C 55% 7.2 mph SE11.6 kmh SE 7.2 mph11.6 kmh 30.05 in1017.6 mb 0.00 in0.0 mm 0.00 in0.0 mm 0.00 in0.0 mm
12:45 PM 76.1°F24.5°C 65.7°F18.7°C 57% 8.7 mph SE14.0 kmh SE 8.8 mph14.2 kmh 30.05 in1017.6 mb 0.00 in0.0 mm 0.00 in0.0 mm 0.00 in0.0 mm
12:48 PM 76.2°F24.6°C 66.0°F18.9°C 57% 8.1 mph NNW13.0 kmh NNW 8.1 mph13.0 kmh 30.05 in1017.6 mb 0.00 in0.0 mm 0.00 in0.0 mm 0.00 in0.0 mm
12:51 PM 76.4°F24.7°C 65.4°F18.6°C 56% 11.3 mph NNW18.2 kmh NNW 11.4 mph18.3 kmh 30.05 in1017.6 mb 0.00 in0.0 mm 0.00 in0.0 mm 0.00 in0.0 mm
12:54 PM 75.5°F24.2°C 65.2°F18.4°C 56% 5.2 mph SE8.4 kmh SE 5.2 mph8.4 kmh 30.05 in1017.6 mb 0.00 in0.0 mm 0.00 in0.0 mm 0.00 in0.0 mm
12:57 PM 75.2°F24.0°C 65.0°F18.3°C 57% 4.4 mph SE7.1 kmh SE 4.5 mph7.2 kmh 30.05 in1017.6 mb 0.00 in0.0 mm 0.00 in0.0 mm 0.00 in0.0 mm
01:00 PM 74.8°F23.8°C 64.5°F18.1°C 56% 10.9 mph SE17.5 kmh SE 11.0 mph17.7 kmh 30.05 in1017.6 mb 0.00 in0.0 mm 0.00 in0.0 mm 0.00 in0.0 mm
01:03 PM 75.1°F23.9°C 65.4°F18.6°C 58% 10.3 mph ESE16.6 kmh ESE 10.3 mph16.6 kmh 30.05 in1017.6 mb 0.00 in0.0 mm 0.00 in0.0 mm 0.00 in0.0 mm
01:06 PM 76.1°F24.5°C 66.1°F18.9°C 59% 12.7 mph NNW20.4 kmh NNW 12.8 mph20.6 kmh 30.05 in1017.6 mb 0.00 in0.0 mm 0.00 in0.0 mm 0.00 in0.0 mm
01:09 PM 76.2°F24.6°C 65.7°F18.7°C 59% 4.8 mph SE7.7 kmh SE 4.9 mph7.9 kmh 30.05 in1017.6 mb 0.00 in0.0 mm 0.00 in0.0 mm 0.00 in0.0 mm
01:12 PM 77.1°F25.1°C 66.3°F19.1°C 59% 8.0 mph SE12.9 kmh SE 8.1 mph13.0 kmh 30.05 in1017.6 mb 0.00 in0.0 mm 0.00 in0.0 mm 0.00 in0.0 mm
01:15 PM 78.2°F25.7°C 66.0°F18.9°C 58% 9.7 mph SE15.6 kmh SE 9.8 mph15.8 kmh 30.05 in1017.6 mb 0.00 in0.0 mm 0.00 in0.0 mm 0.00 in0.0 mm
01:18 PM 78.5°F25.8°C 65.9°F18.8°C 57% 5.3 mph SE8.5 kmh SE 5.3 mph8.5 kmh 30.05 in1017.6 mb 0.00 in0.0 mm 0.00 in0.0 mm 0.00 in0.0 mm
01:21 PM 78.4°F25.8°C 66.1°F18.9°C 55% 4.9 mph SE7.9 kmh SE 4.9 mph7.9 kmh 30.05 in1017.6 mb 0.00 in0.0 mm 0.00 in0.0 mm 0.00 in0.0 mm
01:24 PM 79.6°F26.4°C 66.4°F19.1°C 56% 9.5 mph NNW15.3 kmh NNW 9.6 mph15.4 kmh 30.05 in1017.6 mb 0.00 in0.0 mm 0.00 in0.0 mm 0.00 in0.0 mm
01:27 PM 79.6°F26.4°C 66.3°F19.1°C 55% 5.3 mph SE8.5 kmh SE 5.3 mph8.5 kmh 30.05 in1017.6 mb 0.00 in0.0 mm 0.00 in0.0 mm 0.00 in0.0 mm
01:30 PM 78.4°F25.8°C 65.8°F18.8°C 54% 8.0 mph NNW12.9 kmh NNW 8.2 mph13.2 kmh 30.05 in1017.6 mb 0.00 in0.0 mm 0.00 in0.0 mm 0.00 in0.0 mm
01:36 PM 80.3°F26.8°C 66.4°F19.1°C 55% 7.3 mph NNW11.7 kmh NNW 7.3 mph11.7 kmh 30.05 in1017.6 mb 0.00 in0.0 mm 0.00 in0.0 mm 0.00 in0.0 mm
01:39 PM 80.0°F26.7°C 66.2°F19.0°C 54% 8.1 mph ESE13.0 kmh ESE 8.1 mph13.0 kmh 30.05 in1017.6 mb 0.00 in0.0 mm 0.00 in0.0 mm 0.00 in0.0 mm
01:42 PM 79.3°F26.3°C 66.5°F19.2°C 54% 10.3 mph NNW16.6 kmh NNW 10.4 mph16.7 kmh 30.05 in1017.6 mb 0.00 in0.0 mm 0.00 in0.0 mm 0.00 in0.0 mm
01:45 PM 78.1°F25.6°C 65.4°F18.6°C 54% 8.1 mph ESE13.0 kmh ESE 8.1 mph13.0 kmh 30.05 in1017.6 mb 0.00 in0.0 mm 0.00 in0.0 mm 0.00 in0.0 mm
01:48 PM 78.5°F25.8°C 66.5°F19.2°C 55% 8.5 mph ESE13.7 kmh ESE 8.5 mph13.7 kmh 30.05 in1017.6 mb 0.00 in0.0 mm 0.00 in0.0 mm 0.00 in0.0 mm
01:51 PM 78.2°F25.7°C 65.6°F18.7°C 55% 10.0 mph ESE16.1 kmh ESE 10.1 mph16.3 kmh 30.04 in1017.3 mb 0.00 in0.0 mm 0.00 in0.0 mm 0.00 in0.0 mm
01:54 PM 77.1°F25.1°C 64.7°F18.2°C 53% 6.9 mph NNW11.1 kmh NNW 7.0 mph11.3 kmh 30.05 in1017.6 mb 0.00 in0.0 mm 0.00 in0.0 mm 0.00 in0.0 mm
01:57 PM 77.2°F25.1°C 64.5°F18.1°C 54% 6.4 mph SE10.3 kmh SE 6.4 mph10.3 kmh 30.05 in1017.6 mb 0.00 in0.0 mm 0.00 in0.0 mm 0.00 in0.0 mm
02:00 PM 76.8°F24.9°C 64.9°F18.3°C 55% 12.3 mph ESE19.8 kmh ESE 12.3 mph19.8 kmh 30.04 in1017.3 mb 0.00 in0.0 mm 0.00 in0.0 mm 0.00 in0.0 mm
02:03 PM 76.8°F24.9°C 64.7°F18.2°C 55% 6.0 mph SE9.7 kmh SE 6.0 mph9.7 kmh 30.04 in1017.3 mb 0.00 in0.0 mm 0.00 in0.0 mm 0.00 in0.0 mm
02:06 PM 76.8°F24.9°C 65.2°F18.4°C 56% 4.4 mph SSE7.1 kmh SSE 4.4 mph7.1 kmh 30.04 in1017.3 mb 0.00 in0.0 mm 0.00 in0.0 mm 0.00 in0.0 mm
02:09 PM 77.9°F25.5°C 65.5°F18.6°C 56% 6.2 mph ESE10.0 kmh ESE 6.2 mph10.0 kmh 30.04 in1017.3 mb 0.00 in0.0 mm 0.00 in0.0 mm 0.00 in0.0 mm
02:12 PM 77.9°F25.5°C 66.4°F19.1°C 57% 5.7 mph ESE9.2 kmh ESE 5.7 mph9.2 kmh 30.04 in1017.3 mb 0.00 in0.0 mm 0.00 in0.0 mm 0.00 in0.0 mm
02:15 PM 79.6°F26.4°C 66.8°F19.3°C 58% 5.1 mph SE8.2 kmh SE 5.1 mph8.2 kmh 30.03 in1016.9 mb 0.00 in0.0 mm 0.00 in0.0 mm 0.00 in0.0 mm
02:18 PM 80.6°F27.0°C 67.7°F19.8°C 57% 2.4 mph E3.9 kmh E 2.4 mph3.9 kmh 30.04 in1017.3 mb 0.00 in0.0 mm 0.00 in0.0 mm 0.00 in0.0 mm
02:21 PM 81.4°F27.4°C 68.1°F20.1°C 56% 2.8 mph NNW4.5 kmh NNW 2.8 mph4.5 kmh 30.03 in1016.9 mb 0.00 in0.0 mm 0.00 in0.0 mm 0.00 in0.0 mm
02:24 PM 80.9°F27.2°C 66.9°F19.4°C 53% 7.7 mph E12.4 kmh E 7.7 mph12.4 kmh 30.04 in1017.3 mb 0.00 in0.0 mm 0.00 in0.0 mm 0.00 in0.0 mm
02:27 PM 81.4°F27.4°C 66.8°F19.3°C 52% 6.0 mph NNW9.7 kmh NNW 6.1 mph9.8 kmh 30.03 in1016.9 mb 0.00 in0.0 mm 0.00 in0.0 mm 0.00 in0.0 mm
02:30 PM 80.9°F27.2°C 65.7°F18.7°C 52% 5.1 mph SE8.2 kmh SE 5.2 mph8.4 kmh 30.03 in1016.9 mb 0.00 in0.0 mm 0.00 in0.0 mm 0.00 in0.0 mm
02:33 PM 80.3°F26.8°C 66.0°F18.9°C 52% 2.0 mph ESE3.2 kmh ESE 2.0 mph3.2 kmh 30.03 in1016.9 mb 0.00 in0.0 mm 0.00 in0.0 mm 0.00 in0.0 mm
02:36 PM 79.0°F26.1°C 64.3°F17.9°C 51% 14.9 mph SE24.0 kmh SE 15.1 mph24.3 kmh 30.03 in1016.9 mb 0.00 in0.0 mm 0.00 in0.0 mm 0.00 in0.0 mm
02:39 PM 78.7°F25.9°C 64.5°F18.1°C 51% 9.7 mph NNW15.6 kmh NNW 9.9 mph15.9 kmh 30.03 in1016.9 mb 0.00 in0.0 mm 0.00 in0.0 mm 0.00 in0.0 mm
02:42 PM 77.7°F25.4°C 64.7°F18.2°C 53% 6.1 mph SE9.8 kmh SE 6.2 mph10.0 kmh 30.03 in1016.9 mb 0.00 in0.0 mm 0.00 in0.0 mm 0.00 in0.0 mm
02:45 PM 77.7°F25.4°C 64.0°F17.8°C 53% 6.9 mph SE11.1 kmh SE 6.9 mph11.1 kmh 30.03 in1016.9 mb 0.00 in0.0 mm 0.00 in0.0 mm 0.00 in0.0 mm
02:48 PM 77.7°F25.4°C 65.1°F18.4°C 54% 4.4 mph SE7.1 kmh SE 4.4 mph7.1 kmh 30.03 in1016.9 mb 0.00 in0.0 mm 0.00 in0.0 mm 0.00 in0.0 mm
02:51 PM 77.7°F25.4°C 65.0°F18.3°C 54% 10.5 mph ESE16.9 kmh ESE 10.6 mph17.1 kmh 30.03 in1016.9 mb 0.00 in0.0 mm 0.00 in0.0 mm 0.00 in0.0 mm
02:54 PM 77.7°F25.4°C 65.1°F18.4°C 55% 5.7 mph ESE9.2 kmh ESE 5.7 mph9.2 kmh 30.03 in1016.9 mb 0.00 in0.0 mm 0.00 in0.0 mm 0.00 in0.0 mm
02:57 PM 77.9°F25.5°C 65.5°F18.6°C 54% 5.2 mph NNW8.4 kmh NNW 5.2 mph8.4 kmh 30.03 in1016.9 mb 0.00 in0.0 mm 0.00 in0.0 mm 0.00 in0.0 mm
03:00 PM 78.0°F25.6°C 64.7°F18.2°C 54% 10.9 mph ESE17.5 kmh ESE 10.9 mph17.5 kmh 30.03 in1016.9 mb 0.00 in0.0 mm 0.00 in0.0 mm 0.00 in0.0 mm
03:03 PM 77.0°F25.0°C 65.6°F18.7°C 56% 2.0 mph SE3.2 kmh SE 2.0 mph3.2 kmh 30.03 in1016.9 mb 0.00 in0.0 mm 0.00 in0.0 mm 0.00 in0.0 mm
03:06 PM 75.7°F24.3°C 64.1°F17.8°C 54% 9.7 mph SE15.6 kmh SE 9.8 mph15.8 kmh 30.03 in1016.9 mb 0.00 in0.0 mm 0.00 in0.0 mm 0.00 in0.0 mm
03:09 PM 75.3°F24.1°C 64.3°F17.9°C 55% 8.9 mph ESE14.3 kmh ESE 9.0 mph14.5 kmh 30.03 in1016.9 mb 0.00 in0.0 mm 0.00 in0.0 mm 0.00 in0.0 mm
03:12 PM 75.1°F23.9°C 64.7°F18.2°C 56% 8.9 mph NNW14.3 kmh NNW 8.9 mph14.3 kmh 30.03 in1016.9 mb 0.00 in0.0 mm 0.00 in0.0 mm 0.00 in0.0 mm
03:15 PM 74.4°F23.6°C 64.1°F17.8°C 56% 7.6 mph ESE12.2 kmh ESE 7.6 mph12.2 kmh 30.03 in1016.9 mb 0.00 in0.0 mm 0.00 in0.0 mm 0.00 in0.0 mm
03:18 PM 74.5°F23.6°C 63.5°F17.5°C 55% 7.2 mph SE11.6 kmh SE 7.3 mph11.7 kmh 30.03 in1016.9 mb 0.00 in0.0 mm 0.00 in0.0 mm 0.00 in0.0 mm
03:21 PM 74.6°F23.7°C 64.0°F17.8°C 55% 9.2 mph SE14.8 kmh SE 9.2 mph14.8 kmh 30.03 in1016.9 mb 0.00 in0.0 mm 0.00 in0.0 mm 0.00 in0.0 mm
03:24 PM 75.0°F23.9°C 63.2°F17.3°C 56% 8.8 mph NNW14.2 kmh NNW 9.0 mph14.5 kmh 30.03 in1016.9 mb 0.00 in0.0 mm 0.00 in0.0 mm 0.00 in0.0 mm
03:27 PM 75.1°F23.9°C 64.1°F17.8°C 56% 6.4 mph SE10.3 kmh SE 6.4 mph10.3 kmh 30.03 in1016.9 mb 0.00 in0.0 mm 0.00 in0.0 mm 0.00 in0.0 mm
03:30 PM 75.3°F24.1°C 64.7°F18.2°C 56% 4.0 mph ESE6.4 kmh ESE 4.0 mph6.4 kmh 30.03 in1016.9 mb 0.00 in0.0 mm 0.00 in0.0 mm 0.00 in0.0 mm
03:33 PM 75.4°F24.1°C 64.5°F18.1°C 56% 7.3 mph SE11.7 kmh SE 7.3 mph11.7 kmh 30.03 in1016.9 mb 0.00 in0.0 mm 0.00 in0.0 mm 0.00 in0.0 mm
03:36 PM 75.2°F24.0°C 63.9°F17.7°C 56% 10.5 mph NNW16.9 kmh NNW 10.6 mph17.1 kmh 30.03 in1016.9 mb 0.00 in0.0 mm 0.00 in0.0 mm 0.00 in0.0 mm
03:39 PM 75.0°F23.9°C 64.5°F18.1°C 57% 9.3 mph ESE15.0 kmh ESE 9.4 mph15.1 kmh 30.03 in1016.9 mb 0.00 in0.0 mm 0.00 in0.0 mm 0.00 in0.0 mm
03:42 PM 75.1°F23.9°C 65.1°F18.4°C 58% 7.3 mph SE11.7 kmh SE 7.3 mph11.7 kmh 30.03 in1016.9 mb 0.00 in0.0 mm 0.00 in0.0 mm 0.00 in0.0 mm
03:45 PM 75.5°F24.2°C 65.7°F18.7°C 59% 6.5 mph NNW10.5 kmh NNW 6.5 mph10.5 kmh 30.03 in1016.9 mb 0.00 in0.0 mm 0.00 in0.0 mm 0.00 in0.0 mm
03:48 PM 76.7°F24.8°C 64.9°F18.3°C 58% 9.3 mph ESE15.0 kmh ESE 9.3 mph15.0 kmh 30.03 in1016.9 mb 0.00 in0.0 mm 0.00 in0.0 mm 0.00 in0.0 mm
03:51 PM 76.9°F24.9°C 65.1°F18.4°C 57% 18.2 mph ESE29.3 kmh ESE 18.3 mph29.5 kmh 30.03 in1016.9 mb 0.00 in0.0 mm 0.00 in0.0 mm 0.00 in0.0 mm
03:54 PM 77.2°F25.1°C 64.6°F18.1°C 57% 11.1 mph ESE17.9 kmh ESE 11.2 mph18.0 kmh 30.03 in1016.9 mb 0.00 in0.0 mm 0.00 in0.0 mm 0.00 in0.0 mm
03:57 PM 77.2°F25.1°C 65.8°F18.8°C 58% 1.6 mph ESE2.6 kmh ESE 1.6 mph2.6 kmh 30.03 in1016.9 mb 0.00 in0.0 mm 0.00 in0.0 mm 0.00 in0.0 mm
04:00 PM 76.9°F24.9°C 65.8°F18.8°C 57% 4.0 mph ESE6.4 kmh ESE 4.1 mph6.6 kmh 30.03 in1016.9 mb 0.00 in0.0 mm 0.00 in0.0 mm 0.00 in0.0 mm
04:03 PM 77.6°F25.3°C 65.2°F18.4°C 57% 7.2 mph ESE11.6 kmh ESE 7.2 mph11.6 kmh 30.03 in1016.9 mb 0.00 in0.0 mm 0.00 in0.0 mm 0.00 in0.0 mm
04:06 PM 79.5°F26.4°C 65.6°F18.7°C 57% 4.0 mph ESE6.4 kmh ESE 4.1 mph6.6 kmh 30.03 in1016.9 mb 0.00 in0.0 mm 0.00 in0.0 mm 0.00 in0.0 mm
04:09 PM 79.4°F26.3°C 66.1°F18.9°C 57% 10.5 mph ESE16.9 kmh ESE 10.6 mph17.1 kmh 30.03 in1016.9 mb 0.00 in0.0 mm 0.00 in0.0 mm 0.00 in0.0 mm
04:15 PM 80.2°F26.8°C 66.6°F19.2°C 58% 13.9 mph ESE22.4 kmh ESE 13.9 mph22.4 kmh 30.03 in1016.9 mb 0.00 in0.0 mm 0.00 in0.0 mm 0.00 in0.0 mm
04:18 PM 80.7°F27.1°C 65.8°F18.8°C 56% 5.7 mph SE9.2 kmh SE 5.7 mph9.2 kmh 30.03 in1016.9 mb 0.00 in0.0 mm 0.00 in0.0 mm 0.00 in0.0 mm
04:21 PM 80.4°F26.9°C 67.5°F19.7°C 57% 7.7 mph SE12.4 kmh SE 7.7 mph12.4 kmh 30.03 in1016.9 mb 0.00 in0.0 mm 0.00 in0.0 mm 0.00 in0.0 mm
04:24 PM 80.6°F27.0°C 67.5°F19.7°C 57% 2.0 mph E3.2 kmh E 2.0 mph3.2 kmh 30.03 in1016.9 mb 0.00 in0.0 mm 0.00 in0.0 mm 0.00 in0.0 mm
04:27 PM 79.1°F26.2°C 65.5°F18.6°C 54% 8.5 mph NNW13.7 kmh NNW 8.6 mph13.8 kmh 30.03 in1016.9 mb 0.00 in0.0 mm 0.00 in0.0 mm 0.00 in0.0 mm
04:30 PM 78.7°F25.9°C 66.8°F19.3°C 56% 1.6 mph NE2.6 kmh NE 1.6 mph2.6 kmh 30.03 in1016.9 mb 0.00 in0.0 mm 0.00 in0.0 mm 0.00 in0.0 mm
04:33 PM 76.9°F24.9°C 66.3°F19.1°C 56% 1.6 mph E2.6 kmh E 1.6 mph2.6 kmh 30.03 in1016.9 mb 0.00 in0.0 mm 0.00 in0.0 mm 0.00 in0.0 mm
04:36 PM 76.2°F24.6°C 66.0°F18.9°C 56% 2.0 mph NNW3.2 kmh NNW 2.0 mph3.2 kmh 30.03 in1016.9 mb 0.00 in0.0 mm 0.00 in0.0 mm 0.00 in0.0 mm
04:42 PM 77.3°F25.2°C 67.2°F19.6°C 58% 4.9 mph ESE7.9 kmh ESE 4.9 mph7.9 kmh 30.03 in1016.9 mb 0.00 in0.0 mm 0.00 in0.0 mm 0.00 in0.0 mm
04:45 PM 77.1°F25.1°C 66.1°F18.9°C 58% 6.8 mph SE10.9 kmh SE 6.8 mph10.9 kmh 30.03 in1016.9 mb 0.00 in0.0 mm 0.00 in0.0 mm 0.00 in0.0 mm
04:48 PM 78.6°F25.9°C 66.1°F18.9°C 57% 9.4 mph SE15.1 kmh SE 9.5 mph15.3 kmh 30.03 in1016.9 mb 0.00 in0.0 mm 0.00 in0.0 mm 0.00 in0.0 mm
04:51 PM 78.6°F25.9°C 67.0°F19.4°C 57% 9.6 mph ESE15.4 kmh ESE 9.7 mph15.6 kmh 30.03 in1016.9 mb 0.00 in0.0 mm 0.00 in0.0 mm 0.00 in0.0 mm
04:54 PM 78.6°F25.9°C 65.5°F18.6°C 56% 7.7 mph NNW12.4 kmh NNW 7.8 mph12.6 kmh 30.03 in1016.9 mb 0.00 in0.0 mm 0.00 in0.0 mm 0.00 in0.0 mm
04:57 PM 77.7°F25.4°C 65.8°F18.8°C 56% 11.1 mph ESE17.9 kmh ESE 11.1 mph17.9 kmh 30.03 in1016.9 mb 0.00 in0.0 mm 0.00 in0.0 mm 0.00 in0.0 mm
05:00 PM 76.9°F24.9°C 66.4°F19.1°C 58% 12.1 mph SE19.5 kmh SE 12.1 mph19.5 kmh 30.03 in1016.9 mb 0.00 in0.0 mm 0.00 in0.0 mm 0.00 in0.0 mm
05:03 PM 75.3°F24.1°C 65.0°F18.3°C 58% 10.1 mph SE16.3 kmh SE 10.2 mph16.4 kmh 30.03 in1016.9 mb 0.00 in0.0 mm 0.00 in0.0 mm 0.00 in0.0 mm
05:06 PM 75.4°F24.1°C 64.7°F18.2°C 59% 8.1 mph ESE13.0 kmh ESE 8.2 mph13.2 kmh 30.03 in1016.9 mb 0.00 in0.0 mm 0.00 in0.0 mm 0.00 in0.0 mm
05:09 PM 74.9°F23.8°C 66.0°F18.9°C 60% 5.6 mph NNW9.0 kmh NNW 5.6 mph9.0 kmh 30.03 in1016.9 mb 0.00 in0.0 mm 0.00 in0.0 mm 0.00 in0.0 mm
05:12 PM 74.6°F23.7°C 64.9°F18.3°C 60% 8.5 mph ESE13.7 kmh ESE 8.6 mph13.8 kmh 30.03 in1016.9 mb 0.00 in0.0 mm 0.00 in0.0 mm 0.00 in0.0 mm
05:15 PM 73.9°F23.3°C 64.7°F18.2°C 61% 10.1 mph ESE16.3 kmh ESE 10.2 mph16.4 kmh 30.03 in1016.9 mb 0.00 in0.0 mm 0.00 in0.0 mm 0.00 in0.0 mm
05:18 PM 72.8°F22.7°C 64.9°F18.3°C 61% 11.5 mph ESE18.5 kmh ESE 11.5 mph18.5 kmh 30.03 in1016.9 mb 0.00 in0.0 mm 0.00 in0.0 mm 0.00 in0.0 mm
05:21 PM 72.7°F22.6°C 64.6°F18.1°C 61% 7.5 mph NNW12.1 kmh NNW 7.6 mph12.2 kmh 30.03 in1016.9 mb 0.00 in0.0 mm 0.00 in0.0 mm 0.00 in0.0 mm
05:24 PM 71.6°F22.0°C 63.7°F17.6°C 61% 8.7 mph SE14.0 kmh SE 8.7 mph14.0 kmh 30.03 in1016.9 mb 0.00 in0.0 mm 0.00 in0.0 mm 0.00 in0.0 mm
05:27 PM 71.0°F21.7°C 63.0°F17.2°C 61% 16.5 mph SE26.6 kmh SE 16.5 mph26.6 kmh 30.03 in1016.9 mb 0.00 in0.0 mm 0.00 in0.0 mm 0.00 in0.0 mm
05:30 PM 70.4°F21.3°C 62.5°F16.9°C 61% 12.3 mph ESE19.8 kmh ESE 12.3 mph19.8 kmh 30.03 in1016.9 mb 0.00 in0.0 mm 0.00 in0.0 mm 0.00 in0.0 mm
05:33 PM 69.9°F21.1°C 63.0°F17.2°C 61% 6.5 mph NNW10.5 kmh NNW 6.6 mph10.6 kmh 30.04 in1017.3 mb 0.00 in0.0 mm 0.00 in0.0 mm 0.00 in0.0 mm
05:36 PM 69.6°F20.9°C 62.4°F16.9°C 61% 6.1 mph NNW9.8 kmh NNW 6.1 mph9.8 kmh 30.04 in1017.3 mb 0.00 in0.0 mm 0.00 in0.0 mm 0.00 in0.0 mm
05:39 PM 69.1°F20.6°C 62.9°F17.2°C 62% 6.9 mph E11.1 kmh E 6.9 mph11.1 kmh 30.04 in1017.3 mb 0.00 in0.0 mm 0.00 in0.0 mm 0.00 in0.0 mm
05:42 PM 68.9°F20.5°C 63.4°F17.4°C 63% 5.1 mph E8.2 kmh E 5.2 mph8.4 kmh 30.04 in1017.3 mb 0.00 in0.0 mm 0.00 in0.0 mm 0.00 in0.0 mm
05:45 PM 68.5°F20.3°C 63.0°F17.2°C 63% 6.0 mph ESE9.7 kmh ESE 6.0 mph9.7 kmh 30.04 in1017.3 mb 0.00 in0.0 mm 0.00 in0.0 mm 0.00 in0.0 mm
05:48 PM 68.0°F20.0°C 64.3°F17.9°C 64% 5.6 mph E9.0 kmh E 5.6 mph9.0 kmh 30.04 in1017.3 mb 0.00 in0.0 mm 0.00 in0.0 mm 0.00 in0.0 mm
05:51 PM 68.0°F20.0°C 63.7°F17.6°C 64% 4.0 mph NNW6.4 kmh NNW 4.0 mph6.4 kmh 30.04 in1017.3 mb 0.00 in0.0 mm 0.00 in0.0 mm 0.00 in0.0 mm
05:54 PM 67.7°F19.8°C 64.0°F17.8°C 64% 4.8 mph ESE7.7 kmh ESE 4.8 mph7.7 kmh 30.04 in1017.3 mb 0.00 in0.0 mm 0.00 in0.0 mm 0.00 in0.0 mm
05:57 PM 67.3°F19.6°C 63.5°F17.5°C 64% 3.8 mph E6.1 kmh E 3.8 mph6.1 kmh 30.04 in1017.3 mb 0.00 in0.0 mm 0.00 in0.0 mm 0.00 in0.0 mm
06:00 PM 67.2°F19.6°C 63.6°F17.6°C 65% 4.6 mph ENE7.4 kmh ENE 4.6 mph7.4 kmh 30.04 in1017.3 mb 0.00 in0.0 mm 0.00 in0.0 mm 0.00 in0.0 mm
06:03 PM 66.9°F19.4°C 63.1°F17.3°C 65% 3.2 mph E5.1 kmh E 3.3 mph5.3 kmh 30.04 in1017.3 mb 0.00 in0.0 mm 0.00 in0.0 mm 0.00 in0.0 mm
06:06 PM 67.1°F19.5°C 63.0°F17.2°C 64% 6.1 mph ESE9.8 kmh ESE 6.2 mph10.0 kmh 30.04 in1017.3 mb 0.00 in0.0 mm 0.00 in0.0 mm 0.00 in0.0 mm
06:09 PM 67.1°F19.5°C 62.4°F16.9°C 64% 3.2 mph E5.1 kmh E 3.2 mph5.1 kmh 30.05 in1017.6 mb 0.00 in0.0 mm 0.00 in0.0 mm 0.00 in0.0 mm
06:12 PM 67.1°F19.5°C 62.2°F16.8°C 63% 10.9 mph NNW17.5 kmh NNW 11.0 mph17.7 kmh 30.05 in1017.6 mb 0.00 in0.0 mm 0.00 in0.0 mm 0.00 in0.0 mm
06:15 PM 67.2°F19.6°C 62.5°F16.9°C 63% 13.8 mph NNW22.2 kmh NNW 13.9 mph22.4 kmh 30.04 in1017.3 mb 0.00 in0.0 mm 0.00 in0.0 mm 0.00 in0.0 mm
06:18 PM 67.1°F19.5°C 62.4°F16.9°C 64% 1.5 mph E2.4 kmh E 1.6 mph2.6 kmh 30.04 in1017.3 mb 0.00 in0.0 mm 0.00 in0.0 mm 0.00 in0.0 mm
06:21 PM 67.0°F19.4°C 63.3°F17.4°C 65% 2.0 mph E3.2 kmh E 2.0 mph3.2 kmh 30.04 in1017.3 mb 0.00 in0.0 mm 0.00 in0.0 mm 0.00 in0.0 mm
06:24 PM 67.1°F19.5°C 63.7°F17.6°C 65% 2.4 mph NNW3.9 kmh NNW 2.4 mph3.9 kmh 30.04 in1017.3 mb 0.00 in0.0 mm 0.00 in0.0 mm 0.00 in0.0 mm
06:27 PM 67.0°F19.4°C 63.0°F17.2°C 65% 1.2 mph E1.9 kmh E 1.2 mph1.9 kmh 30.05 in1017.6 mb 0.00 in0.0 mm 0.00 in0.0 mm 0.00 in0.0 mm
06:30 PM 67.1°F19.5°C 63.5°F17.5°C 65% 1.2 mph NNW1.9 kmh NNW 1.2 mph1.9 kmh 30.05 in1017.6 mb 0.00 in0.0 mm 0.00 in0.0 mm 0.00 in0.0 mm
06:33 PM 66.9°F19.4°C 63.1°F17.3°C 65% 2.0 mph E3.2 kmh E 2.0 mph3.2 kmh 30.04 in1017.3 mb 0.00 in0.0 mm 0.00 in0.0 mm 0.00 in0.0 mm
06:36 PM 66.3°F19.1°C 63.4°F17.4°C 66% 4.4 mph NE7.1 kmh NE 4.4 mph7.1 kmh 30.04 in1017.3 mb 0.00 in0.0 mm 0.00 in0.0 mm 0.00 in0.0 mm
06:39 PM 66.5°F19.2°C 64.3°F17.9°C 67% 3.1 mph NNW5.0 kmh NNW 3.1 mph5.0 kmh 30.04 in1017.3 mb 0.00 in0.0 mm 0.00 in0.0 mm 0.00 in0.0 mm
06:42 PM 66.7°F19.3°C 64.1°F17.8°C 67% 0.4 mph E0.6 kmh E 0.4 mph0.6 kmh 30.04 in1017.3 mb 0.00 in0.0 mm 0.00 in0.0 mm 0.00 in0.0 mm
06:45 PM 66.4°F19.1°C 63.9°F17.7°C 67% 0.8 mph NNW1.3 kmh NNW 0.8 mph1.3 kmh 30.04 in1017.3 mb 0.00 in0.0 mm 0.00 in0.0 mm 0.00 in0.0 mm
06:48 PM 66.4°F19.1°C 64.6°F18.1°C 67% 3.2 mph NNW5.1 kmh NNW 3.3 mph5.3 kmh 30.04 in1017.3 mb 0.00 in0.0 mm 0.00 in0.0 mm 0.00 in0.0 mm
06:51 PM 66.2°F19.0°C 64.5°F18.1°C 68% 2.4 mph ENE3.9 kmh ENE 2.5 mph4.0 kmh 30.04 in1017.3 mb 0.00 in0.0 mm 0.00 in0.0 mm 0.00 in0.0 mm
06:54 PM 66.3°F19.1°C 64.4°F18.0°C 68% 1.6 mph ENE2.6 kmh ENE 1.6 mph2.6 kmh 30.04 in1017.3 mb 0.00 in0.0 mm 0.00 in0.0 mm 0.00 in0.0 mm
06:57 PM 66.0°F18.9°C 63.9°F17.7°C 68% 4.0 mph NE6.4 kmh NE 4.1 mph6.6 kmh 30.03 in1016.9 mb 0.00 in0.0 mm 0.00 in0.0 mm 0.00 in0.0 mm
07:00 PM 66.3°F19.1°C 63.5°F17.5°C 67% 2.4 mph NNW3.9 kmh NNW 2.4 mph3.9 kmh 30.04 in1017.3 mb 0.00 in0.0 mm 0.00 in0.0 mm 0.00 in0.0 mm
07:03 PM 66.2°F19.0°C 63.8°F17.7°C 68% 7.0 mph NNW11.3 kmh NNW 7.0 mph11.3 kmh 30.04 in1017.3 mb 0.00 in0.0 mm 0.00 in0.0 mm 0.00 in0.0 mm
07:06 PM 66.2°F19.0°C 63.5°F17.5°C 68% 2.8 mph E4.5 kmh E 2.9 mph4.7 kmh 30.04 in1017.3 mb 0.00 in0.0 mm 0.00 in0.0 mm 0.00 in0.0 mm
07:09 PM 66.2°F19.0°C 64.3°F17.9°C 69% 1.6 mph ENE2.6 kmh ENE 1.6 mph2.6 kmh 30.04 in1017.3 mb 0.00 in0.0 mm 0.00 in0.0 mm 0.00 in0.0 mm
07:12 PM 66.2°F19.0°C 64.1°F17.8°C 69% 2.3 mph E3.7 kmh E 2.4 mph3.9 kmh 30.03 in1016.9 mb 0.00 in0.0 mm 0.00 in0.0 mm 0.00 in0.0 mm
07:15 PM 66.4°F19.1°C 63.8°F17.7°C 68% 2.8 mph NNW4.5 kmh NNW 2.8 mph4.5 kmh 30.03 in1016.9 mb 0.00 in0.0 mm 0.00 in0.0 mm 0.00 in0.0 mm
07:18 PM 66.2°F19.0°C 63.4°F17.4°C 68% 1.6 mph E2.6 kmh E 1.6 mph2.6 kmh 30.04 in1017.3 mb 0.00 in0.0 mm 0.00 in0.0 mm 0.00 in0.0 mm
07:21 PM 66.3°F19.1°C 63.7°F17.6°C 68% 6.5 mph SE10.5 kmh SE 6.5 mph10.5 kmh 30.04 in1017.3 mb 0.00 in0.0 mm 0.00 in0.0 mm 0.00 in0.0 mm
07:24 PM 66.3°F19.1°C 63.2°F17.3°C 68% 2.0 mph NNW3.2 kmh NNW 2.0 mph3.2 kmh 30.04 in1017.3 mb 0.00 in0.0 mm 0.00 in0.0 mm 0.00 in0.0 mm
07:27 PM 66.4°F19.1°C 63.1°F17.3°C 68% 3.1 mph NNW5.0 kmh NNW 3.1 mph5.0 kmh 30.04 in1017.3 mb 0.00 in0.0 mm 0.00 in0.0 mm 0.00 in0.0 mm
07:30 PM 66.5°F19.2°C 62.6°F17.0°C 67% 5.7 mph NNW9.2 kmh NNW 5.7 mph9.2 kmh 30.04 in1017.3 mb 0.00 in0.0 mm 0.00 in0.0 mm 0.00 in0.0 mm
07:33 PM 66.7°F19.3°C 62.6°F17.0°C 67% 6.9 mph SE11.1 kmh SE 6.9 mph11.1 kmh 30.04 in1017.3 mb 0.00 in0.0 mm 0.00 in0.0 mm 0.00 in0.0 mm
07:36 PM 66.7°F19.3°C 62.5°F16.9°C 68% 5.2 mph E8.4 kmh E 5.2 mph8.4 kmh 30.04 in1017.3 mb 0.00 in0.0 mm 0.00 in0.0 mm 0.00 in0.0 mm
07:39 PM 66.7°F19.3°C 62.9°F17.2°C 68% 6.1 mph SE9.8 kmh SE 6.1 mph9.8 kmh 30.04 in1017.3 mb 0.00 in0.0 mm 0.00 in0.0 mm 0.00 in0.0 mm
07:42 PM 66.5°F19.2°C 62.4°F16.9°C 68% 12.3 mph SE19.8 kmh SE 12.4 mph20.0 kmh 30.04 in1017.3 mb 0.00 in0.0 mm 0.00 in0.0 mm 0.00 in0.0 mm
07:45 PM 66.7°F19.3°C 63.0°F17.2°C 69% 7.3 mph ESE11.7 kmh ESE 7.3 mph11.7 kmh 30.03 in1016.9 mb 0.00 in0.0 mm 0.00 in0.0 mm 0.00 in0.0 mm
07:48 PM 66.9°F19.4°C 62.6°F17.0°C 69% 6.1 mph ESE9.8 kmh ESE 6.1 mph9.8 kmh 30.03 in1016.9 mb 0.00 in0.0 mm 0.00 in0.0 mm 0.00 in0.0 mm
07:51 PM 66.7°F19.3°C 62.3°F16.8°C 68% 10.1 mph E16.3 kmh E 10.2 mph16.4 kmh 30.03 in1016.9 mb 0.00 in0.0 mm 0.00 in0.0 mm 0.00 in0.0 mm
07:54 PM 66.7°F19.3°C 62.3°F16.8°C 68% 7.3 mph SE11.7 kmh SE 7.3 mph11.7 kmh 30.03 in1016.9 mb 0.00 in0.0 mm 0.00 in0.0 mm 0.00 in0.0 mm
07:57 PM 66.8°F19.3°C 61.6°F16.4°C 67% 8.3 mph SE13.4 kmh SE 8.4 mph13.5 kmh 30.03 in1016.9 mb 0.00 in0.0 mm 0.00 in0.0 mm 0.00 in0.0 mm
08:00 PM 66.9°F19.4°C 61.6°F16.4°C 67% 6.1 mph ESE9.8 kmh ESE 6.1 mph9.8 kmh 30.03 in1016.9 mb 0.00 in0.0 mm 0.00 in0.0 mm 0.00 in0.0 mm
08:03 PM 66.8°F19.3°C 62.1°F16.7°C 67% 4.4 mph ESE7.1 kmh ESE 4.4 mph7.1 kmh 30.03 in1016.9 mb 0.00 in0.0 mm 0.00 in0.0 mm 0.00 in0.0 mm
08:06 PM 66.9°F19.4°C 62.0°F16.7°C 66% 3.6 mph NNW5.8 kmh NNW 3.7 mph6.0 kmh 30.03 in1016.9 mb 0.00 in0.0 mm 0.00 in0.0 mm 0.00 in0.0 mm
08:09 PM 67.0°F19.4°C 61.7°F16.5°C 66% 6.0 mph NNW9.7 kmh NNW 6.0 mph9.7 kmh 30.03 in1016.9 mb 0.00 in0.0 mm 0.00 in0.0 mm 0.00 in0.0 mm
08:12 PM 67.1°F19.5°C 61.7°F16.5°C 66% 7.3 mph SE11.7 kmh SE 7.3 mph11.7 kmh 30.03 in1016.9 mb 0.00 in0.0 mm 0.00 in0.0 mm 0.00 in0.0 mm
08:15 PM 66.9°F19.4°C 61.5°F16.4°C 66% 5.6 mph ESE9.0 kmh ESE 5.7 mph9.2 kmh 30.03 in1016.9 mb 0.00 in0.0 mm 0.00 in0.0 mm 0.00 in0.0 mm
08:18 PM 67.1°F19.5°C 61.5°F16.4°C 65% 5.3 mph SE8.5 kmh SE 5.3 mph8.5 kmh 30.03 in1016.9 mb 0.00 in0.0 mm 0.00 in0.0 mm 0.00 in0.0 mm
08:21 PM 66.8°F19.3°C 61.7°F16.5°C 66% 2.7 mph E4.3 kmh E 2.7 mph4.3 kmh 30.03 in1016.9 mb 0.00 in0.0 mm 0.00 in0.0 mm 0.00 in0.0 mm
08:24 PM 67.0°F19.4°C 61.4°F16.3°C 65% 4.8 mph NNW7.7 kmh NNW 4.9 mph7.9 kmh 30.03 in1016.9 mb 0.00 in0.0 mm 0.00 in0.0 mm 0.00 in0.0 mm
08:27 PM 66.8°F19.3°C 61.6°F16.4°C 66% 6.0 mph NNW9.7 kmh NNW 6.0 mph9.7 kmh 30.03 in1016.9 mb 0.00 in0.0 mm 0.00 in0.0 mm 0.00 in0.0 mm
08:30 PM 67.0°F19.4°C 61.1°F16.2°C 65% 4.4 mph SE7.1 kmh SE 4.5 mph7.2 kmh 30.03 in1016.9 mb 0.00 in0.0 mm 0.00 in0.0 mm 0.00 in0.0 mm
08:33 PM 67.0°F19.4°C 61.1°F16.2°C 65% 7.1 mph SE11.4 kmh SE 7.2 mph11.6 kmh 30.03 in1016.9 mb 0.00 in0.0 mm 0.00 in0.0 mm 0.00 in0.0 mm
08:36 PM 66.7°F19.3°C 61.5°F16.4°C 66% 4.0 mph ENE6.4 kmh ENE 4.1 mph6.6 kmh 30.03 in1016.9 mb 0.00 in0.0 mm 0.00 in0.0 mm 0.00 in0.0 mm
08:39 PM 66.8°F19.3°C 61.4°F16.3°C 66% 6.5 mph E10.5 kmh E 6.5 mph10.5 kmh 30.04 in1017.3 mb 0.00 in0.0 mm 0.00 in0.0 mm 0.00 in0.0 mm
08:42 PM 66.7°F19.3°C 61.9°F16.6°C 66% 5.3 mph ESE8.5 kmh ESE 5.3 mph8.5 kmh 30.04 in1017.3 mb 0.00 in0.0 mm 0.00 in0.0 mm 0.00 in0.0 mm
08:45 PM 66.5°F19.2°C 61.8°F16.6°C 66% 8.9 mph ESE14.3 kmh ESE 9.0 mph14.5 kmh 30.04 in1017.3 mb 0.00 in0.0 mm 0.00 in0.0 mm 0.00 in0.0 mm
08:51 PM 66.5°F19.2°C 61.7°F16.5°C 66% 5.2 mph ESE8.4 kmh ESE 5.2 mph8.4 kmh 30.04 in1017.3 mb 0.00 in0.0 mm 0.00 in0.0 mm 0.00 in0.0 mm
08:54 PM 66.3°F19.1°C 61.8°F16.6°C 67% 4.0 mph ESE6.4 kmh ESE 4.0 mph6.4 kmh 30.04 in1017.3 mb 0.00 in0.0 mm 0.00 in0.0 mm 0.00 in0.0 mm
08:57 PM 66.5°F19.2°C 61.7°F16.5°C 67% 5.4 mph ESE8.7 kmh ESE 5.4 mph8.7 kmh 30.04 in1017.3 mb 0.00 in0.0 mm 0.00 in0.0 mm 0.00 in0.0 mm
09:00 PM 66.4°F19.1°C 61.5°F16.4°C 67% 7.6 mph SE12.2 kmh SE 7.8 mph12.6 kmh 30.04 in1017.3 mb 0.00 in0.0 mm 0.00 in0.0 mm 0.00 in0.0 mm
09:03 PM 66.5°F19.2°C 61.8°F16.6°C 67% 2.4 mph E3.9 kmh E 2.4 mph3.9 kmh 30.04 in1017.3 mb 0.00 in0.0 mm 0.00 in0.0 mm 0.00 in0.0 mm
09:06 PM 66.7°F19.3°C 61.4°F16.3°C 67% 10.9 mph ESE17.5 kmh ESE 11.0 mph17.7 kmh 30.05 in1017.6 mb 0.00 in0.0 mm 0.00 in0.0 mm 0.00 in0.0 mm
09:09 PM 66.8°F19.3°C 61.5°F16.4°C 67% 8.9 mph SE14.3 kmh SE 9.0 mph14.5 kmh 30.04 in1017.3 mb 0.00 in0.0 mm 0.00 in0.0 mm 0.00 in0.0 mm
09:12 PM 66.9°F19.4°C 61.4°F16.3°C 67% 6.4 mph NNW10.3 kmh NNW 6.5 mph10.5 kmh 30.05 in1017.6 mb 0.00 in0.0 mm 0.00 in0.0 mm 0.00 in0.0 mm
09:15 PM 66.8°F19.3°C 61.8°F16.6°C 67% 8.1 mph ESE13.0 kmh ESE 8.1 mph13.0 kmh 30.05 in1017.6 mb 0.00 in0.0 mm 0.00 in0.0 mm 0.00 in0.0 mm
09:18 PM 66.7°F19.3°C 61.8°F16.6°C 67% 6.4 mph SE10.3 kmh SE 6.8 mph10.9 kmh 30.04 in1017.3 mb 0.00 in0.0 mm 0.00 in0.0 mm 0.00 in0.0 mm
09:21 PM 66.9°F19.4°C 61.3°F16.3°C 66% 10.5 mph ESE16.9 kmh ESE 10.6 mph17.1 kmh 30.04 in1017.3 mb 0.00 in0.0 mm 0.00 in0.0 mm 0.00 in0.0 mm
09:24 PM 66.9°F19.4°C 61.7°F16.5°C 67% 8.1 mph ESE13.0 kmh ESE 8.1 mph13.0 kmh 30.04 in1017.3 mb 0.00 in0.0 mm 0.00 in0.0 mm 0.00 in0.0 mm
09:27 PM 66.9°F19.4°C 61.3°F16.3°C 66% 9.3 mph NNW15.0 kmh NNW 9.4 mph15.1 kmh 30.05 in1017.6 mb 0.00 in0.0 mm 0.00 in0.0 mm 0.00 in0.0 mm
09:30 PM 67.0°F19.4°C 60.9°F16.1°C 65% 8.5 mph ESE13.7 kmh ESE 8.6 mph13.8 kmh 30.05 in1017.6 mb 0.00 in0.0 mm 0.00 in0.0 mm 0.00 in0.0 mm
09:33 PM 67.0°F19.4°C 61.2°F16.2°C 66% 5.8 mph NE9.3 kmh NE 5.8 mph9.3 kmh 30.05 in1017.6 mb 0.00 in0.0 mm 0.00 in0.0 mm 0.00 in0.0 mm
09:36 PM 66.9°F19.4°C 61.5°F16.4°C 66% 2.4 mph E3.9 kmh E 2.4 mph3.9 kmh 30.05 in1017.6 mb 0.00 in0.0 mm 0.00 in0.0 mm 0.00 in0.0 mm
09:39 PM 67.0°F19.4°C 61.3°F16.3°C 66% 2.4 mph E3.9 kmh E 2.4 mph3.9 kmh 30.05 in1017.6 mb 0.00 in0.0 mm 0.00 in0.0 mm 0.00 in0.0 mm
09:42 PM 66.9°F19.4°C 61.3°F16.3°C 66% 6.4 mph SE10.3 kmh SE 6.4 mph10.3 kmh 30.05 in1017.6 mb 0.00 in0.0 mm 0.00 in0.0 mm 0.00 in0.0 mm
09:45 PM 66.5°F19.2°C 61.5°F16.4°C 66% 1.6 mph NNW2.6 kmh NNW 1.6 mph2.6 kmh 30.05 in1017.6 mb 0.00 in0.0 mm 0.00 in0.0 mm 0.00 in0.0 mm
09:48 PM 66.7°F19.3°C 61.4°F16.3°C 66% 3.6 mph ENE5.8 kmh ENE 3.7 mph6.0 kmh 30.04 in1017.3 mb 0.00 in0.0 mm 0.00 in0.0 mm 0.00 in0.0 mm
09:51 PM 66.2°F19.0°C 62.0°F16.7°C 68% 2.4 mph NE3.9 kmh NE 2.4 mph3.9 kmh 30.04 in1017.3 mb 0.00 in0.0 mm 0.00 in0.0 mm 0.00 in0.0 mm
09:54 PM 66.3°F19.1°C 61.6°F16.4°C 67% 10.7 mph E17.2 kmh E 10.8 mph17.4 kmh 30.05 in1017.6 mb 0.00 in0.0 mm 0.00 in0.0 mm 0.00 in0.0 mm
09:57 PM 66.4°F19.1°C 61.3°F16.3°C 67% 3.6 mph ESE5.8 kmh ESE 3.7 mph6.0 kmh 30.05 in1017.6 mb 0.00 in0.0 mm 0.00 in0.0 mm 0.00 in0.0 mm
10:00 PM 66.4°F19.1°C 61.2°F16.2°C 67% 8.4 mph SE13.5 kmh SE 8.4 mph13.5 kmh 30.05 in1017.6 mb 0.00 in0.0 mm 0.00 in0.0 mm 0.00 in0.0 mm
10:03 PM 66.2°F19.0°C 61.8°F16.6°C 67% 4.4 mph E7.1 kmh E 4.4 mph7.1 kmh 30.05 in1017.6 mb 0.00 in0.0 mm 0.00 in0.0 mm 0.00 in0.0 mm
10:06 PM 66.3°F19.1°C 61.7°F16.5°C 67% 4.0 mph ENE6.4 kmh ENE 4.0 mph6.4 kmh 30.05 in1017.6 mb 0.00 in0.0 mm 0.00 in0.0 mm 0.00 in0.0 mm
10:09 PM 66.7°F19.3°C 61.0°F16.1°C 67% 3.1 mph ESE5.0 kmh ESE 3.2 mph5.1 kmh 30.05 in1017.6 mb 0.00 in0.0 mm 0.00 in0.0 mm 0.00 in0.0 mm
10:12 PM 66.4°F19.1°C 61.3°F16.3°C 67% 3.2 mph ESE5.1 kmh ESE 3.2 mph5.1 kmh 30.05 in1017.6 mb 0.00 in0.0 mm 0.00 in0.0 mm 0.00 in0.0 mm
10:15 PM 66.8°F19.3°C 60.8°F16.0°C 66% 8.7 mph ESE14.0 kmh ESE 8.7 mph14.0 kmh 30.05 in1017.6 mb 0.00 in0.0 mm 0.00 in0.0 mm 0.00 in0.0 mm
10:18 PM 66.7°F19.3°C 61.1°F16.2°C 66% 2.8 mph NNW4.5 kmh NNW 2.8 mph4.5 kmh 30.05 in1017.6 mb 0.00 in0.0 mm 0.00 in0.0 mm 0.00 in0.0 mm
10:21 PM 66.3°F19.1°C 61.1°F16.2°C 67% 4.0 mph ESE6.4 kmh ESE 4.0 mph6.4 kmh 30.05 in1017.6 mb 0.00 in0.0 mm 0.00 in0.0 mm 0.00 in0.0 mm
10:24 PM 66.4°F19.1°C 60.9°F16.1°C 66% 8.5 mph NNW13.7 kmh NNW 8.5 mph13.7 kmh 30.05 in1017.6 mb 0.00 in0.0 mm 0.00 in0.0 mm 0.00 in0.0 mm
10:27 PM 66.5°F19.2°C 60.9°F16.1°C 66% 7.7 mph NNW12.4 kmh NNW 7.7 mph12.4 kmh 30.05 in1017.6 mb 0.00 in0.0 mm 0.00 in0.0 mm 0.00 in0.0 mm
10:30 PM 66.4°F19.1°C 61.5°F16.4°C 67% 4.3 mph ESE6.9 kmh ESE 4.4 mph7.1 kmh 30.05 in1017.6 mb 0.00 in0.0 mm 0.00 in0.0 mm 0.00 in0.0 mm
10:33 PM 66.4°F19.1°C 60.9°F16.1°C 66% 8.5 mph SE13.7 kmh SE 8.5 mph13.7 kmh 30.05 in1017.6 mb 0.00 in0.0 mm 0.00 in0.0 mm 0.00 in0.0 mm
10:36 PM 66.3°F19.1°C 61.2°F16.2°C 67% 6.1 mph SE9.8 kmh SE 6.1 mph9.8 kmh 30.05 in1017.6 mb 0.00 in0.0 mm 0.00 in0.0 mm 0.00 in0.0 mm
10:39 PM 66.3°F19.1°C 61.1°F16.2°C 66% 4.7 mph ESE7.6 kmh ESE 4.8 mph7.7 kmh 30.05 in1017.6 mb 0.00 in0.0 mm 0.00 in0.0 mm 0.00 in0.0 mm
10:42 PM 66.2°F19.0°C 61.4°F16.3°C 67% 4.2 mph NNW6.8 kmh NNW 4.3 mph6.9 kmh 30.05 in1017.6 mb 0.00 in0.0 mm 0.00 in0.0 mm 0.00 in0.0 mm
10:45 PM 66.0°F18.9°C 61.7°F16.5°C 68% 3.6 mph ENE5.8 kmh ENE 3.7 mph6.0 kmh 30.05 in1017.6 mb 0.00 in0.0 mm 0.00 in0.0 mm 0.00 in0.0 mm
10:48 PM 65.6°F18.7°C 62.0°F16.7°C 69% 5.2 mph ESE8.4 kmh ESE 5.2 mph8.4 kmh 30.05 in1017.6 mb 0.00 in0.0 mm 0.00 in0.0 mm 0.00 in0.0 mm
10:51 PM 65.6°F18.7°C 61.7°F16.5°C 69% 9.5 mph ESE15.3 kmh ESE 9.5 mph15.3 kmh 30.05 in1017.6 mb 0.00 in0.0 mm 0.00 in0.0 mm 0.00 in0.0 mm
10:54 PM 65.4°F18.6°C 61.9°F16.6°C 69% 5.0 mph NNW8.0 kmh NNW 5.1 mph8.2 kmh 30.05 in1017.6 mb 0.00 in0.0 mm 0.00 in0.0 mm 0.00 in0.0 mm
10:57 PM 65.8°F18.8°C 61.6°F16.4°C 69% 7.2 mph NNW11.6 kmh NNW 7.2 mph11.6 kmh 30.05 in1017.6 mb 0.00 in0.0 mm 0.00 in0.0 mm 0.00 in0.0 mm
11:00 PM 65.8°F18.8°C 61.3°F16.3°C 68% 6.4 mph ESE10.3 kmh ESE 6.5 mph10.5 kmh 30.05 in1017.6 mb 0.00 in0.0 mm 0.00 in0.0 mm 0.00 in0.0 mm
11:03 PM 65.6°F18.7°C 61.7°F16.5°C 69% 5.8 mph SE9.3 kmh SE 5.9 mph9.5 kmh 30.05 in1017.6 mb 0.00 in0.0 mm 0.00 in0.0 mm 0.00 in0.0 mm
11:06 PM 66.0°F18.9°C 61.2°F16.2°C 69% 7.9 mph SE12.7 kmh SE 8.0 mph12.9 kmh 30.05 in1017.6 mb 0.00 in0.0 mm 0.00 in0.0 mm 0.00 in0.0 mm
11:09 PM 65.6°F18.7°C 61.6°F16.4°C 69% 5.2 mph E8.4 kmh E 5.3 mph8.5 kmh 30.05 in1017.6 mb 0.00 in0.0 mm 0.00 in0.0 mm 0.00 in0.0 mm
11:12 PM 65.6°F18.7°C 61.2°F16.2°C 69% 5.7 mph NNW9.2 kmh NNW 5.7 mph9.2 kmh 30.05 in1017.6 mb 0.00 in0.0 mm 0.00 in0.0 mm 0.00 in0.0 mm
11:15 PM 65.5°F18.6°C 61.7°F16.5°C 69% 5.9 mph SE9.5 kmh SE 6.0 mph9.7 kmh 30.05 in1017.6 mb 0.00 in0.0 mm 0.00 in0.0 mm 0.00 in0.0 mm
11:18 PM 65.6°F18.7°C 61.5°F16.4°C 69% 7.5 mph SE12.1 kmh SE 7.6 mph12.2 kmh 30.05 in1017.6 mb 0.00 in0.0 mm 0.00 in0.0 mm 0.00 in0.0 mm
11:21 PM 65.6°F18.7°C 61.4°F16.3°C 69% 7.1 mph SE11.4 kmh SE 7.2 mph11.6 kmh 30.05 in1017.6 mb 0.00 in0.0 mm 0.00 in0.0 mm 0.00 in0.0 mm
11:24 PM 65.3°F18.5°C 61.5°F16.4°C 70% 3.6 mph ESE5.8 kmh ESE 3.7 mph6.0 kmh 30.05 in1017.6 mb 0.00 in0.0 mm 0.00 in0.0 mm 0.00 in0.0 mm
11:27 PM 65.2°F18.4°C 61.6°F16.4°C 70% 3.2 mph SE5.1 kmh SE 3.2 mph5.1 kmh 30.05 in1017.6 mb 0.00 in0.0 mm 0.00 in0.0 mm 0.00 in0.0 mm
11:30 PM 65.2°F18.4°C 61.7°F16.5°C 70% 7.5 mph ESE12.1 kmh ESE 7.6 mph12.2 kmh 30.05 in1017.6 mb 0.00 in0.0 mm 0.00 in0.0 mm 0.00 in0.0 mm
11:33 PM 65.1°F18.4°C 61.6°F16.4°C 70% 9.5 mph NNW15.3 kmh NNW 9.6 mph15.4 kmh 30.05 in1017.6 mb 0.00 in0.0 mm 0.00 in0.0 mm 0.00 in0.0 mm
11:36 PM 65.1°F18.4°C 61.6°F16.4°C 70% 6.6 mph NNW10.6 kmh NNW 6.7 mph10.8 kmh 30.05 in1017.6 mb 0.00 in0.0 mm 0.00 in0.0 mm 0.00 in0.0 mm
11:39 PM 65.2°F18.4°C 61.5°F16.4°C 70% 4.9 mph E7.9 kmh E 4.9 mph7.9 kmh 30.05 in1017.6 mb 0.00 in0.0 mm 0.00 in0.0 mm 0.00 in0.0 mm
11:42 PM 65.1°F18.4°C 61.5°F16.4°C 70% 6.1 mph ESE9.8 kmh ESE 6.1 mph9.8 kmh 30.05 in1017.6 mb 0.00 in0.0 mm 0.00 in0.0 mm 0.00 in0.0 mm
11:45 PM 64.9°F18.3°C 61.5°F16.4°C 70% 8.1 mph NNW13.0 kmh NNW 8.2 mph13.2 kmh 30.05 in1017.6 mb 0.00 in0.0 mm 0.00 in0.0 mm 0.00 in0.0 mm
11:48 PM 65.1°F18.4°C 61.5°F16.4°C 70% 6.5 mph ESE10.5 kmh ESE 6.5 mph10.5 kmh 30.05 in1017.6 mb 0.00 in0.0 mm 0.00 in0.0 mm 0.00 in0.0 mm
11:51 PM 65.1°F18.4°C 61.5°F16.4°C 70% 3.6 mph NNW5.8 kmh NNW 3.6 mph5.8 kmh 30.06 in1017.9 mb 0.00 in0.0 mm 0.00 in0.0 mm 0.00 in0.0 mm
11:54 PM 64.7°F18.2°C 61.6°F16.4°C 70% 3.6 mph SE5.8 kmh SE 3.6 mph5.8 kmh 30.06 in1017.9 mb 0.00 in0.0 mm 0.00 in0.0 mm 0.00 in0.0 mm
11:57 PM 64.5°F18.1°C 61.9°F16.6°C 71% 4.0 mph E6.4 kmh E 4.1 mph6.6 kmh 30.06 in1017.9 mb 0.00 in0.0 mm 0.00 in0.0 mm 0.00 in0.0 mm